Observation data for Persimmon Gap on 05/22/2020      Previous  Date  Next       Current Mesonet Observations  Soil Data  Daily Summary Page  Observations in Plain Language
KPG1 220500Z 12005KT 28/09 A2981 RMK A01 T02840092  RH  030%=      5-min Rain = 0
KPG1 220501Z 11004KT 28/09 A298 RMK A01 T02840092  RH  030%=      5-min Rain = 0
KPG1 220502Z 11007KT 28/09 A2981 RMK A01 T02830092  RH  030%=      5-min Rain = 0
KPG1 220503Z 10009KT 28/09 A2981 RMK A01 T02830092  RH  030%=      5-min Rain = 0
KPG1 220504Z 13006KT 29/09 A2981 RMK A01 T02850093  RH  030%=      5-min Rain = 0
KPG1 220505Z 11003KT 29/09 A2981 RMK A01 T02860093  RH  030%=      5-min Rain = 0
KPG1 220506Z 13006KT 29/09 A2981 RMK A01 T02850093  RH  030%=      5-min Rain = 0
KPG1 220507Z 11005KT 29/09 A2981 RMK A01 T02850093  RH  030%=      5-min Rain = 0
KPG1 220508Z 10004KT 29/09 A2981 RMK A01 T02850093  RH  030%=      5-min Rain = 0
KPG1 220509Z 11003KT 29/09 A2981 RMK A01 T02850094  RH  030%=      5-min Rain = 0
KPG1 220510Z 11004KT 29/09 A2981 RMK A01 T02850093  RH  030%=      5-min Rain = 0
KPG1 220511Z 11003KT 29/09 A2981 RMK A01 T02850093  RH  030%=      5-min Rain = 0
KPG1 220512Z 11003KT 29/09 A2981 RMK A01 T02850094  RH  030%=      5-min Rain = 0
KPG1 220513Z 14005KT 29/09 A2981 RMK A01 T02850094  RH  030%=      5-min Rain = 0
KPG1 220514Z 12005KT 29/09 A2981 RMK A01 T02850094  RH  030%=      5-min Rain = 0
KPG1 220515Z 16005KT 29/09 A2981 RMK A01 T02850094  RH  030%=      5-min Rain = 0
KPG1 220516Z 13004KT 29/10 A2981 RMK A01 T02850095  RH  030%=      5-min Rain = 0
KPG1 220517Z 13004KT 29/10 A2981 RMK A01 T02850095  RH  030%=      5-min Rain = 0
KPG1 220518Z 10005KT 29/10 A2981 RMK A01 T02850095  RH  031%=      5-min Rain = 0
KPG1 220519Z 11006KT 29/10 A2981 RMK A01 T02850095  RH  031%=      5-min Rain = 0
KPG1 220520Z 10005KT 29/10 A2981 RMK A01 T02850095  RH  031%=      5-min Rain = 0
KPG1 220521Z 10004KT 28/10 A2981 RMK A01 T02840095  RH  031%=      5-min Rain = 0
KPG1 220522Z 12005KT 28/10 A2981 RMK A01 T02840095  RH  031%=      5-min Rain = 0
KPG1 220523Z 14008KT 28/10 A2981 RMK A01 T02840095  RH  031%=      5-min Rain = 0
KPG1 220524Z 14008KT 28/10 A2981 RMK A01 T02840095  RH  031%=      5-min Rain = 0
KPG1 220525Z 13008KT 29/10 A2981 RMK A01 T02850095  RH  031%=      5-min Rain = 0
KPG1 220526Z 14008KT 29/10 A2981 RMK A01 T02850095  RH  031%=      5-min Rain = 0
KPG1 220527Z 14008KT 29/10 A2981 RMK A01 T02860097  RH  031%=      5-min Rain = 0
KPG1 220528Z 13006KT 29/10 A2981 RMK A01 T02860097  RH  031%=      5-min Rain = 0
KPG1 220529Z 13006KT 29/10 A2981 RMK A01 T02870097  RH  031%=      5-min Rain = 0
KPG1 220530Z 13005KT 29/10 A2981 RMK A01 T02870097  RH  030%=      5-min Rain = 0
KPG1 220531Z 11003KT 29/10 A2981 RMK A01 T02870096  RH  030%=      5-min Rain = 0
KPG1 220532Z 10003KT 29/10 A2981 RMK A01 T02870096  RH  030%=      5-min Rain = 0
KPG1 220533Z 15003KT 29/10 A2981 RMK A01 T02860096  RH  030%=      5-min Rain = 0
KPG1 220534Z 16004KT 29/10 A2981 RMK A01 T02850095  RH  030%=      5-min Rain = 0
KPG1 220535Z 13004KT 29/10 A2981 RMK A01 T02850096  RH  031%=      5-min Rain = 0
KPG1 220536Z 09005KT 28/10 A2981 RMK A01 T02840096  RH  031%=      5-min Rain = 0
KPG1 220537Z 12005KT 28/10 A2981 RMK A01 T02830095  RH  031%=      5-min Rain = 0
KPG1 220538Z 12003KT 28/09 A2981 RMK A01 T02840093  RH  030%=      5-min Rain = 0
KPG1 220539Z 10004KT 29/09 A2981 RMK A01 T02860093  RH  030%=      5-min Rain = 0
KPG1 220540Z 10005KT 29/09 A2982 RMK A01 T02860094  RH  030%=      5-min Rain = 0
KPG1 220541Z 14009G14KT 29/09 A2982 RMK A01 T02860094  RH  030%=      5-min Rain = 0
KPG1 220542Z 11011KT 29/10 A2981 RMK A01 T02870095  RH  030%=      5-min Rain = 0
KPG1 220543Z 12010KT 29/10 A2982 RMK A01 T02890096  RH  030%=      5-min Rain = 0
KPG1 220544Z 14006KT 29/10 A2982 RMK A01 T02890097  RH  030%=      5-min Rain = 0
KPG1 220545Z 12006KT 29/10 A2982 RMK A01 T02890097  RH  030%=      5-min Rain = 0
KPG1 220546Z 14008KT 29/10 A2982 RMK A01 T02890098  RH  030%=      5-min Rain = 0
KPG1 220547Z 12009KT 29/10 A2982 RMK A01 T02880098  RH  031%=      5-min Rain = 0
KPG1 220548Z 14011G17KT 29/10 A2982 RMK A01 T02880099  RH  031%=      5-min Rain = 0
KPG1 220549Z 13013KT 29/10 A2982 RMK A01 T02880101  RH  031%=      5-min Rain = 0
KPG1 220550Z 12007KT 29/10 A2982 RMK A01 T02880101  RH  031%=      5-min Rain = 0
KPG1 220551Z 13007KT 29/10 A2982 RMK A01 T02890100  RH  031%=      5-min Rain = 0
KPG1 220552Z 12007KT 29/10 A2982 RMK A01 T02880100  RH  031%=      5-min Rain = 0
KPG1 220553Z 13005KT 29/10 A2982 RMK A01 T02880100  RH  031%=      5-min Rain = 0
KPG1 220554Z 13006KT 29/10 A2982 RMK A01 T02860100  RH  031%=      5-min Rain = 0
KPG1 220555Z 14006KT 29/10 A2982 RMK A01 T02860101  RH  032%=      5-min Rain = 0
KPG1 220556Z 13005KT 29/10 A2982 RMK A01 T02850101  RH  032%=      5-min Rain = 0
KPG1 220557Z 13005KT 28/10 A2982 RMK A01 T02840101  RH  032%=      5-min Rain = 0
KPG1 220558Z 13006KT 28/10 A2982 RMK A01 T02830100  RH  032%=      5-min Rain = 0
KPG1 220559Z 13004KT 28/10 A2982 RMK A01 T02820099  RH  032%=      5-min Rain = 0
KPG1 220600Z 09003KT 28/10 A2982 RMK A01 T02820099  RH  032%=      5-min Rain = 0
KPG1 220601Z 11005KT 28/10 A2982 RMK A01 T02810096  RH  031%=      5-min Rain = 0
KPG1 220602Z 14005KT 28/10 A2982 RMK A01 T02810096  RH  031%=      5-min Rain = 0
KPG1 220603Z 15003KT 28/10 A2982 RMK A01 T02820098  RH  032%=      5-min Rain = 0
KPG1 220604Z 16005KT 28/10 A2982 RMK A01 T02830099  RH  032%=      5-min Rain = 0
KPG1 220605Z 14007KT 28/10 A2982 RMK A01 T02830099  RH  032%=      5-min Rain = 0
KPG1 220606Z 13006KT 28/10 A2982 RMK A01 T02840099  RH  032%=      5-min Rain = 0
KPG1 220607Z 12006KT 28/10 A2983 RMK A01 T02830099  RH  032%=      5-min Rain = 0
KPG1 220608Z 17003KT 28/10 A2982 RMK A01 T02830098  RH  032%=      5-min Rain = 0
KPG1 220609Z 20002KT 28/10 A2982 RMK A01 T02830098  RH  032%=      5-min Rain = 0
KPG1 220610Z 12001KT 28/10 A2982 RMK A01 T02820099  RH  032%=      5-min Rain = 0
KPG1 220611Z 13004KT 28/10 A2982 RMK A01 T02810101  RH  033%=      5-min Rain = 0
KPG1 220612Z 12005KT 28/10 A2982 RMK A01 T02810101  RH  033%=      5-min Rain = 0
KPG1 220613Z 10005KT 28/10 A2982 RMK A01 T02810101  RH  033%=      5-min Rain = 0
KPG1 220614Z 11006KT 28/10 A2982 RMK A01 T02810102  RH  033%=      5-min Rain = 0
KPG1 220615Z 12006KT 28/10 A2983 RMK A01 T02800102  RH  033%=      5-min Rain = 0
KPG1 220616Z 12005KT 28/10 A2983 RMK A01 T02800102  RH  033%=      5-min Rain = 0
KPG1 220617Z 13003KT 28/10 A2983 RMK A01 T02800101  RH  033%=      5-min Rain = 0
KPG1 220618Z 09002KT 28/10 A2983 RMK A01 T02790101  RH  033%=      5-min Rain = 0
KPG1 220619Z 09004KT 28/10 A2983 RMK A01 T02790101  RH  033%=      5-min Rain = 0
KPG1 220620Z 11004KT 28/10 A2983 RMK A01 T02780102  RH  033%=      5-min Rain = 0
KPG1 220621Z 11003KT 28/10 A2983 RMK A01 T02770102  RH  034%=      5-min Rain = 0
KPG1 220622Z 14002KT 28/10 A2983 RMK A01 T02760103  RH  034%=      5-min Rain = 0
KPG1 220623Z 12003KT 28/10 A2983 RMK A01 T02760104  RH  034%=      5-min Rain = 0
KPG1 220624Z 12003KT 28/11 A2983 RMK A01 T02750105  RH  034%=      5-min Rain = 0
KPG1 220625Z 10004KT 28/11 A2983 RMK A01 T02750105  RH  035%=      5-min Rain = 0
KPG1 220626Z 11004KT 27/11 A2983 RMK A01 T02740105  RH  035%=      5-min Rain = 0
KPG1 220627Z 13003KT 27/11 A2983 RMK A01 T02740106  RH  035%=      5-min Rain = 0
KPG1 220628Z 12002G7KT 28/11 A2983 RMK A01 T02750106  RH  035%=      5-min Rain = 0
KPG1 220629Z 12006KT 28/11 A2983 RMK A01 T02750106  RH  035%=      5-min Rain = 0
KPG1 220630Z 13007KT 28/11 A2983 RMK A01 T02750107  RH  035%=      5-min Rain = 0
KPG1 220631Z 13005KT 28/11 A2983 RMK A01 T02750107  RH  035%=      5-min Rain = 0
KPG1 220632Z 13004KT 28/11 A2983 RMK A01 T02760107  RH  035%=      5-min Rain = 0
KPG1 220633Z 14005KT 28/11 A2983 RMK A01 T02760107  RH  035%=      5-min Rain = 0
KPG1 220634Z 16006KT 28/11 A2983 RMK A01 T02760107  RH  035%=      5-min Rain = 0
KPG1 220635Z 16004KT 28/11 A2983 RMK A01 T02760106  RH  035%=      5-min Rain = 0
KPG1 220636Z 14004KT 28/11 A2983 RMK A01 T02760107  RH  035%=      5-min Rain = 0
KPG1 220637Z 14004KT 27/11 A2983 RMK A01 T02740107  RH  035%=      5-min Rain = 0
KPG1 220638Z 15005KT 27/11 A2983 RMK A01 T02730107  RH  035%=      5-min Rain = 0
KPG1 220639Z 15006KT 27/11 A2983 RMK A01 T02730107  RH  035%=      5-min Rain = 0
KPG1 220640Z 14006KT 27/11 A2983 RMK A01 T02730107  RH  035%=      5-min Rain = 0
KPG1 220641Z 13005KT 27/11 A2983 RMK A01 T02740107  RH  035%=      5-min Rain = 0
KPG1 220642Z 16004KT 27/11 A2983 RMK A01 T02730108  RH  036%=      5-min Rain = 0
KPG1 220643Z 15004KT 27/11 A2983 RMK A01 T02740108  RH  036%=      5-min Rain = 0
KPG1 220644Z 16004KT 27/11 A2983 RMK A01 T02740109  RH  036%=      5-min Rain = 0
KPG1 220645Z 13004KT 27/11 A2983 RMK A01 T02740109  RH  036%=      5-min Rain = 0
KPG1 220646Z 11008KT 27/11 A2983 RMK A01 T02730109  RH  036%=      5-min Rain = 0
KPG1 220647Z 14008KT 27/11 A2983 RMK A01 T02740111  RH  036%=      5-min Rain = 0
KPG1 220648Z 14007KT 28/11 A2983 RMK A01 T02750112  RH  036%=      5-min Rain = 0
KPG1 220649Z 14010KT 28/11 A2983 RMK A01 T02760113  RH  036%=      5-min Rain = 0
KPG1 220650Z 14008KT 28/11 A2983 RMK A01 T02770114  RH  036%=      5-min Rain = 0
KPG1 220651Z 14006KT 28/11 A2983 RMK A01 T02770114  RH  036%=      5-min Rain = 0
KPG1 220652Z 14005KT 28/11 A2983 RMK A01 T02770114  RH  036%=      5-min Rain = 0
KPG1 220653Z 13007KT 28/11 A2983 RMK A01 T02760113  RH  036%=      5-min Rain = 0
KPG1 220654Z 12006KT 28/11 A2983 RMK A01 T02750112  RH  036%=      5-min Rain = 0
KPG1 220655Z 14006KT 28/11 A2983 RMK A01 T02760112  RH  036%=      5-min Rain = 0
KPG1 220656Z 13008KT 28/11 A2983 RMK A01 T02750113  RH  036%=      5-min Rain = 0
KPG1 220657Z 13005KT 28/11 A2983 RMK A01 T02760112  RH  036%=      5-min Rain = 0
KPG1 220658Z 14005KT 28/11 A2983 RMK A01 T02760112  RH  036%=      5-min Rain = 0
KPG1 220659Z 13005KT 28/11 A2983 RMK A01 T02760112  RH  036%=      5-min Rain = 0
KPG1 220700Z 13006KT 28/11 A2983 RMK A01 T02760112  RH  036%=      5-min Rain = 0
KPG1 220701Z 12005KT 28/11 A2983 RMK A01 T02760112  RH  036%=      5-min Rain = 0
KPG1 220702Z 11004KT 28/11 A2983 RMK A01 T02750111  RH  036%=      5-min Rain = 0
KPG1 220703Z 11005KT 27/11 A2983 RMK A01 T02740111  RH  036%=      5-min Rain = 0
KPG1 220704Z 10006KT 27/11 A2983 RMK A01 T02740111  RH  036%=      5-min Rain = 0
KPG1 220705Z 09005KT 27/11 A2983 RMK A01 T02740111  RH  036%=      5-min Rain = 0
KPG1 220706Z 09005KT 27/11 A2983 RMK A01 T02740110  RH  036%=      5-min Rain = 0
KPG1 220707Z 10003KT 27/11 A2983 RMK A01 T02740111  RH  036%=      5-min Rain = 0
KPG1 220708Z 10004KT 27/11 A2983 RMK A01 T02740112  RH  036%=      5-min Rain = 0
KPG1 220709Z 10004KT 27/11 A2983 RMK A01 T02730112  RH  037%=      5-min Rain = 0
KPG1 220710Z 09004KT 27/11 A2983 RMK A01 T02730112  RH  037%=      5-min Rain = 0
KPG1 220711Z 11004KT 27/11 A2983 RMK A01 T02730113  RH  037%=      5-min Rain = 0
KPG1 220712Z 12004KT 27/11 A2983 RMK A01 T02720114  RH  037%=      5-min Rain = 0
KPG1 220713Z 08004KT 27/12 A2983 RMK A01 T02710117  RH  038%=      5-min Rain = 0
KPG1 220714Z 08004KT 27/12 A2983 RMK A01 T02700123  RH  040%=      5-min Rain = 0
KPG1 220715Z 09003KT 27/13 A2983 RMK A01 T02700125  RH  041%=      5-min Rain = 0
KPG1 220716Z 09005KT 27/13 A2983 RMK A01 T02690126  RH  041%=      5-min Rain = 0
KPG1 220717Z 12007KT 27/13 A2983 RMK A01 T02700125  RH  041%=      5-min Rain = 0
KPG1 220718Z 12006KT 27/12 A2983 RMK A01 T02710123  RH  040%=      5-min Rain = 0
KPG1 220719Z 08003KT 27/13 A2983 RMK A01 T02720126  RH  040%=      5-min Rain = 0
KPG1 220720Z 07003KT 27/13 A2983 RMK A01 T02720130  RH  042%=      5-min Rain = 0
KPG1 220721Z 06003KT 27/13 A2983 RMK A01 T02700132  RH  043%=      5-min Rain = 0
KPG1 220722Z 06003KT 27/13 A2983 RMK A01 T02680132  RH  043%=      5-min Rain = 0
KPG1 220723Z 07002KT 27/13 A2983 RMK A01 T02660133  RH  044%=      5-min Rain = 0
KPG1 220724Z 05002KT 27/13 A2983 RMK A01 T02660134  RH  044%=      5-min Rain = 0
KPG1 220725Z 05003KT 26/13 A2983 RMK A01 T02640133  RH  044%=      5-min Rain = 0
KPG1 220726Z 03003KT 26/13 A2983 RMK A01 T02610133  RH  045%=      5-min Rain = 0
KPG1 220727Z 02002KT 26/13 A2983 RMK A01 T02600134  RH  046%=      5-min Rain = 0
KPG1 220728Z 01004KT 26/14 A2982 RMK A01 T02600135  RH  046%=      5-min Rain = 0
KPG1 220729Z 03004KT 26/13 A2982 RMK A01 T02600134  RH  046%=      5-min Rain = 0
KPG1 220730Z 05003KT 26/13 A2982 RMK A01 T02600134  RH  045%=      5-min Rain = 0
KPG1 220731Z 06004KT 26/13 A2982 RMK A01 T02610132  RH  045%=      5-min Rain = 0
KPG1 220732Z 07004KT 26/13 A2982 RMK A01 T02620133  RH  045%=      5-min Rain = 0
KPG1 220733Z 07004KT 26/14 A2983 RMK A01 T02610135  RH  046%=      5-min Rain = 0
KPG1 220734Z 05004KT 26/14 A2983 RMK A01 T02600135  RH  046%=      5-min Rain = 0
KPG1 220735Z 04002KT 26/13 A2982 RMK A01 T02590134  RH  046%=      5-min Rain = 0
KPG1 220736Z 03003KT 26/13 A2982 RMK A01 T02590134  RH  046%=      5-min Rain = 0
KPG1 220737Z 03004KT 26/13 A2982 RMK A01 T02590134  RH  046%=      5-min Rain = 0
KPG1 220738Z 06004KT 26/13 A2983 RMK A01 T02590134  RH  046%=      5-min Rain = 0
KPG1 220739Z 04005KT 26/14 A2983 RMK A01 T02600135  RH  046%=      5-min Rain = 0
KPG1 220740Z 05004KT 26/14 A2982 RMK A01 T02600135  RH  046%=      5-min Rain = 0
KPG1 220741Z 05004KT 26/13 A2982 RMK A01 T02590134  RH  046%=      5-min Rain = 0
KPG1 220742Z 05004KT 26/13 A2982 RMK A01 T02570134  RH  046%=      5-min Rain = 0
KPG1 220743Z 06002KT 26/14 A2982 RMK A01 T02580135  RH  046%=      5-min Rain = 0
KPG1 220744Z 05003KT 26/14 A2982 RMK A01 T02590135  RH  046%=      5-min Rain = 0
KPG1 220745Z 06004KT 26/14 A2982 RMK A01 T02590135  RH  046%=      5-min Rain = 0
KPG1 220746Z 08004KT 26/14 A2982 RMK A01 T02580136  RH  047%=      5-min Rain = 0
KPG1 220747Z 05004KT 26/14 A2982 RMK A01 T02580136  RH  047%=      5-min Rain = 0
KPG1 220748Z 05003KT 26/14 A2982 RMK A01 T02570136  RH  047%=      5-min Rain = 0
KPG1 220749Z 03003KT 26/14 A2982 RMK A01 T02560136  RH  047%=      5-min Rain = 0
KPG1 220750Z 03004KT 26/14 A2982 RMK A01 T02550136  RH  048%=      5-min Rain = 0
KPG1 220751Z 04004KT 25/14 A2982 RMK A01 T02530136  RH  048%=      5-min Rain = 0
KPG1 220752Z 04004KT 25/14 A2982 RMK A01 T02530136  RH  048%=      5-min Rain = 0
KPG1 220753Z 04004KT 25/14 A2982 RMK A01 T02520136  RH  048%=      5-min Rain = 0
KPG1 220754Z 05005KT 25/14 A2982 RMK A01 T02530135  RH  048%=      5-min Rain = 0
KPG1 220755Z 05005KT 25/14 A2982 RMK A01 T02540136  RH  048%=      5-min Rain = 0
KPG1 220756Z 06004KT 26/14 A2982 RMK A01 T02550136  RH  048%=      5-min Rain = 0
KPG1 220757Z 06005KT 26/14 A2982 RMK A01 T02550136  RH  048%=      5-min Rain = 0
KPG1 220758Z 03005KT 25/14 A2982 RMK A01 T02530136  RH  048%=      5-min Rain = 0
KPG1 220759Z 03005KT 25/14 A2982 RMK A01 T02520136  RH  049%=      5-min Rain = 0
KPG1 220800Z 02006KT 25/14 A2982 RMK A01 T02500136  RH  049%=      5-min Rain = 0
KPG1 220801Z 02006KT 25/14 A2982 RMK A01 T02500136  RH  049%=      5-min Rain = 0
KPG1 220802Z 04006KT 25/14 A2982 RMK A01 T02500136  RH  049%=      5-min Rain = 0
KPG1 220803Z 04006KT 25/14 A2982 RMK A01 T02500135  RH  049%=      5-min Rain = 0
KPG1 220804Z 06006KT 25/14 A2982 RMK A01 T02510135  RH  049%=      5-min Rain = 0
KPG1 220805Z 06006KT 25/14 A2982 RMK A01 T02510135  RH  049%=      5-min Rain = 0
KPG1 220806Z 06006KT 25/13 A2982 RMK A01 T02500134  RH  048%=      5-min Rain = 0
KPG1 220807Z 06006KT 25/13 A2982 RMK A01 T02510134  RH  048%=      5-min Rain = 0
KPG1 220808Z 07006KT 25/13 A2982 RMK A01 T02520134  RH  048%=      5-min Rain = 0
KPG1 220809Z 07006KT 25/13 A2982 RMK A01 T02520133  RH  048%=      5-min Rain = 0
KPG1 220810Z 07005KT 25/13 A2982 RMK A01 T02530132  RH  047%=      5-min Rain = 0
KPG1 220811Z 06004KT 26/13 A2982 RMK A01 T02550132  RH  046%=      5-min Rain = 0
KPG1 220812Z 07003KT 26/13 A2982 RMK A01 T02570132  RH  046%=      5-min Rain = 0
KPG1 220813Z 07004KT 26/13 A2982 RMK A01 T02570133  RH  046%=      5-min Rain = 0
KPG1 220814Z 05004KT 26/13 A2982 RMK A01 T02560132  RH  046%=      5-min Rain = 0
KPG1 220815Z 04004KT 26/13 A2982 RMK A01 T02550132  RH  046%=      5-min Rain = 0
KPG1 220816Z 06004KT 25/13 A2982 RMK A01 T02540132  RH  047%=      5-min Rain = 0
KPG1 220817Z 08004KT 25/13 A2982 RMK A01 T02530132  RH  047%=      5-min Rain = 0
KPG1 220818Z 05005KT 25/13 A2982 RMK A01 T02520132  RH  047%=      5-min Rain = 0
KPG1 220819Z 03005KT 25/13 A2982 RMK A01 T02520132  RH  047%=      5-min Rain = 0
KPG1 220820Z 02003KT 25/13 A2982 RMK A01 T02510132  RH  048%=      5-min Rain = 0
KPG1 220821Z 13001KT 25/13 A2982 RMK A01 T02500132  RH  048%=      5-min Rain = 0
KPG1 220822Z 08001KT 25/13 A2982 RMK A01 T02500131  RH  048%=      5-min Rain = 0
KPG1 220823Z 03002KT 25/13 A2982 RMK A01 T02500131  RH  048%=      5-min Rain = 0
KPG1 220824Z 02003KT 25/13 A2982 RMK A01 T02500131  RH  048%=      5-min Rain = 0
KPG1 220825Z 04004KT 25/13 A2982 RMK A01 T02500132  RH  048%=      5-min Rain = 0
KPG1 220826Z 04005KT 25/13 A2982 RMK A01 T02480132  RH  048%=      5-min Rain = 0
KPG1 220827Z 06004KT 25/13 A2982 RMK A01 T02470131  RH  049%=      5-min Rain = 0
KPG1 220828Z 08004KT 25/13 A2982 RMK A01 T02460131  RH  049%=      5-min Rain = 0
KPG1 220829Z 07004KT 25/13 A2982 RMK A01 T02450131  RH  049%=      5-min Rain = 0
KPG1 220830Z 06004KT 24/13 A2982 RMK A01 T02440131  RH  049%=      5-min Rain = 0
KPG1 220831Z 03004KT 24/13 A2982 RMK A01 T02440132  RH  049%=      5-min Rain = 0
KPG1 220832Z 03005KT 24/13 A2982 RMK A01 T02440131  RH  049%=      5-min Rain = 0
KPG1 220833Z 03006KT 24/13 A2982 RMK A01 T02440131  RH  049%=      5-min Rain = 0
KPG1 220834Z 03006KT 24/13 A2982 RMK A01 T02440132  RH  049%=      5-min Rain = 0
KPG1 220835Z 04004KT 24/13 A2983 RMK A01 T02440131  RH  049%=      5-min Rain = 0
KPG1 220836Z 03004KT 25/13 A2983 RMK A01 T02450130  RH  049%=      5-min Rain = 0
KPG1 220837Z 03005KT 25/13 A2983 RMK A01 T02470130  RH  048%=      5-min Rain = 0
KPG1 220838Z 04003KT 25/13 A2983 RMK A01 T02480130  RH  048%=      5-min Rain = 0
KPG1 220839Z 03004KT 25/13 A2983 RMK A01 T02490129  RH  047%=      5-min Rain = 0
KPG1 220840Z 06003KT 25/13 A2983 RMK A01 T02500130  RH  047%=      5-min Rain = 0
KPG1 220841Z 06004KT 25/13 A2983 RMK A01 T02500130  RH  047%=      5-min Rain = 0
KPG1 220842Z 05003KT 25/13 A2983 RMK A01 T02490130  RH  047%=      5-min Rain = 0
KPG1 220843Z 05003KT 25/13 A2983 RMK A01 T02480130  RH  048%=      5-min Rain = 0
KPG1 220844Z 04002KT 25/13 A2983 RMK A01 T02470130  RH  048%=      5-min Rain = 0
KPG1 220845Z 06003KT 25/13 A2983 RMK A01 T02470130  RH  048%=      5-min Rain = 0
KPG1 220846Z 08003KT 25/13 A2983 RMK A01 T02470129  RH  048%=      5-min Rain = 0
KPG1 220847Z 06004KT 25/13 A2983 RMK A01 T02470129  RH  048%=      5-min Rain = 0
KPG1 220848Z 06004KT 25/13 A2983 RMK A01 T02470129  RH  048%=      5-min Rain = 0
KPG1 220849Z 07004KT 25/13 A2983 RMK A01 T02470130  RH  048%=      5-min Rain = 0
KPG1 220850Z 05004KT 25/13 A2983 RMK A01 T02470130  RH  048%=      5-min Rain = 0
KPG1 220851Z 05004KT 25/13 A2983 RMK A01 T02460130  RH  048%=      5-min Rain = 0
KPG1 220852Z 05004KT 25/13 A2983 RMK A01 T02470131  RH  048%=      5-min Rain = 0
KPG1 220853Z 04004KT 25/13 A2983 RMK A01 T02480131  RH  048%=      5-min Rain = 0
KPG1 220854Z 04004KT 25/13 A2983 RMK A01 T02490131  RH  048%=      5-min Rain = 0
KPG1 220855Z 05003KT 25/13 A2983 RMK A01 T02480131  RH  048%=      5-min Rain = 0
KPG1 220856Z 04003KT 25/13 A2983 RMK A01 T02470131  RH  048%=      5-min Rain = 0
KPG1 220857Z 05004KT 25/13 A2983 RMK A01 T02450132  RH  049%=      5-min Rain = 0
KPG1 220858Z 04004KT 24/13 A2983 RMK A01 T02440131  RH  049%=      5-min Rain = 0
KPG1 220859Z 03004KT 24/13 A2983 RMK A01 T02430131  RH  050%=      5-min Rain = 0
KPG1 220900Z 04004KT 24/13 A2983 RMK A01 T02430131  RH  050%=      5-min Rain = 0
KPG1 220901Z 04004KT 24/13 A2983 RMK A01 T02420131  RH  050%=      5-min Rain = 0
KPG1 220902Z 04004KT 24/13 A2983 RMK A01 T02410132  RH  050%=      5-min Rain = 0
KPG1 220903Z 05003KT 24/13 A2983 RMK A01 T02390131  RH  051%=      5-min Rain = 0
KPG1 220904Z 05003KT 24/13 A2983 RMK A01 T02390131  RH  051%=      5-min Rain = 0
KPG1 220905Z 05003KT 24/13 A2983 RMK A01 T02390131  RH  051%=      5-min Rain = 0
KPG1 220906Z 05003KT 24/13 A2983 RMK A01 T02390131  RH  051%=      5-min Rain = 0
KPG1 220907Z 08003KT 24/13 A2983 RMK A01 T02400131  RH  051%=      5-min Rain = 0
KPG1 220908Z 08002KT 24/13 A2983 RMK A01 T02400131  RH  051%=      5-min Rain = 0
KPG1 220909Z 09003KT 24/13 A2983 RMK A01 T02400131  RH  051%=      5-min Rain = 0
KPG1 220910Z 10004KT 24/13 A2983 RMK A01 T02400132  RH  051%=      5-min Rain = 0
KPG1 220911Z 11004KT 24/13 A2983 RMK A01 T02400132  RH  051%=      5-min Rain = 0
KPG1 220912Z 13003KT 24/13 A2983 RMK A01 T02410132  RH  051%=      5-min Rain = 0
KPG1 220913Z 13003KT 24/13 A2983 RMK A01 T02420133  RH  050%=      5-min Rain = 0
KPG1 220914Z 13003KT 24/13 A2983 RMK A01 T02440133  RH  050%=      5-min Rain = 0
KPG1 220915Z 14003KT 25/13 A2983 RMK A01 T02470134  RH  049%=      5-min Rain = 0
KPG1 220916Z 14003KT 25/13 A2983 RMK A01 T02490134  RH  049%=      5-min Rain = 0
KPG1 220917Z 13003KT 25/13 A2984 RMK A01 T02510134  RH  048%=      5-min Rain = 0
KPG1 220918Z 13003KT 25/13 A2984 RMK A01 T02520134  RH  048%=      5-min Rain = 0
KPG1 220919Z 13003KT 25/14 A2984 RMK A01 T02530135  RH  048%=      5-min Rain = 0
KPG1 220920Z 12002KT 25/14 A2983 RMK A01 T02540135  RH  048%=      5-min Rain = 0
KPG1 220921Z 12002KT 25/14 A2983 RMK A01 T02540135  RH  048%=      5-min Rain = 0
KPG1 220922Z 11002KT 25/14 A2984 RMK A01 T02540135  RH  048%=      5-min Rain = 0
KPG1 220923Z 11002KT 25/13 A2984 RMK A01 T02530134  RH  048%=      5-min Rain = 0
KPG1 220924Z 09002KT 25/14 A2984 RMK A01 T02520135  RH  048%=      5-min Rain = 0
KPG1 220925Z 08002KT 25/13 A2984 RMK A01 T02490134  RH  049%=      5-min Rain = 0
KPG1 220926Z 09003KT 25/13 A2984 RMK A01 T02470134  RH  050%=      5-min Rain = 0
KPG1 220927Z 09002KT 25/13 A2984 RMK A01 T02460134  RH  050%=      5-min Rain = 0
KPG1 220928Z 10002KT 25/14 A2984 RMK A01 T02450135  RH  050%=      5-min Rain = 0
KPG1 220929Z 13003KT 24/13 A2984 RMK A01 T02430134  RH  051%=      5-min Rain = 0
KPG1 220930Z 15003KT 24/13 A2984 RMK A01 T02420134  RH  051%=      5-min Rain = 0
KPG1 220931Z 16003KT 24/13 A2984 RMK A01 T02430134  RH  051%=      5-min Rain = 0
KPG1 220932Z 18003KT 24/13 A2984 RMK A01 T02430134  RH  051%=      5-min Rain = 0
KPG1 220933Z 17003KT 24/14 A2984 RMK A01 T02430135  RH  051%=      5-min Rain = 0
KPG1 220934Z 18003KT 24/14 A2984 RMK A01 T02430135  RH  051%=      5-min Rain = 0
KPG1 220935Z 17003KT 24/14 A2984 RMK A01 T02420135  RH  051%=      5-min Rain = 0
KPG1 220936Z 17004KT 24/14 A2984 RMK A01 T02420135  RH  051%=      5-min Rain = 0
KPG1 220937Z 16004KT 24/14 A2984 RMK A01 T02410135  RH  051%=      5-min Rain = 0
KPG1 220938Z 17004KT 24/14 A2984 RMK A01 T02400135  RH  052%=      5-min Rain = 0
KPG1 220939Z 16003KT 24/14 A2984 RMK A01 T02390135  RH  052%=      5-min Rain = 0
KPG1 220940Z 16003KT 24/13 A2984 RMK A01 T02380133  RH  052%=      5-min Rain = 0
KPG1 220941Z 16004KT 24/13 A2984 RMK A01 T02370131  RH  051%=      5-min Rain = 0
KPG1 220942Z 15004KT 24/13 A2984 RMK A01 T02370131  RH  051%=      5-min Rain = 0
KPG1 220943Z 16003KT 24/13 A2984 RMK A01 T02380131  RH  051%=      5-min Rain = 0
KPG1 220944Z 16003KT 24/13 A2984 RMK A01 T02380131  RH  051%=      5-min Rain = 0
KPG1 220945Z 17002KT 24/13 A2984 RMK A01 T02380130  RH  051%=      5-min Rain = 0
KPG1 220946Z 18002KT 24/13 A2984 RMK A01 T02380130  RH  051%=      5-min Rain = 0
KPG1 220947Z 21002KT 24/13 A2984 RMK A01 T02390130  RH  050%=      5-min Rain = 0
KPG1 220948Z 24002KT 24/13 A2984 RMK A01 T02390130  RH  050%=      5-min Rain = 0
KPG1 220949Z 22003KT 24/13 A2984 RMK A01 T02390130  RH  051%=      5-min Rain = 0
KPG1 220950Z 24002KT 24/13 A2984 RMK A01 T02380129  RH  051%=      5-min Rain = 0
KPG1 220951Z 23002KT 24/13 A2984 RMK A01 T02380129  RH  051%=      5-min Rain = 0
KPG1 220952Z 22003KT 24/13 A2984 RMK A01 T02370129  RH  051%=      5-min Rain = 0
KPG1 220953Z 18003KT 24/13 A2984 RMK A01 T02370129  RH  051%=      5-min Rain = 0
KPG1 220954Z 19002KT 24/13 A2984 RMK A01 T02370128  RH  050%=      5-min Rain = 0
KPG1 220955Z 19002KT 24/13 A2984 RMK A01 T02380128  RH  050%=      5-min Rain = 0
KPG1 220956Z 18001KT 24/13 A2984 RMK A01 T02390129  RH  050%=      5-min Rain = 0
KPG1 220957Z 04001KT 24/13 A2984 RMK A01 T02370131  RH  051%=      5-min Rain = 0
KPG1 220958Z 04001KT 23/13 A2985 RMK A01 T02340131  RH  052%=      5-min Rain = 0
KPG1 220959Z 03001KT 23/13 A2985 RMK A01 T02300131  RH  054%=      5-min Rain = 0
KPG1 221000Z 01000KT 23/13 A2985 RMK A01 T02270132  RH  055%=      5-min Rain = 0
KPG1 221001Z 00000KT 23/13 A2985 RMK A01 T02260129  RH  054%=      5-min Rain = 0
KPG1 221002Z 00000KT 23/13 A2985 RMK A01 T02270129  RH  054%=      5-min Rain = 0
KPG1 221003Z 00000KT 23/13 A2985 RMK A01 T02270128  RH  053%=      5-min Rain = 0
KPG1 221004Z 34000KT 23/13 A2985 RMK A01 T02280130  RH  054%=      5-min Rain = 0
KPG1 221005Z 33000KT 23/13 A2985 RMK A01 T02280130  RH  054%=      5-min Rain = 0
KPG1 221006Z 30001KT 23/13 A2985 RMK A01 T02280129  RH  053%=      5-min Rain = 0
KPG1 221007Z 31001KT 23/13 A2985 RMK A01 T02300129  RH  053%=      5-min Rain = 0
KPG1 221008Z 33001KT 23/13 A2985 RMK A01 T02310129  RH  052%=      5-min Rain = 0
KPG1 221009Z 33001KT 23/13 A2985 RMK A01 T02320128  RH  052%=      5-min Rain = 0
KPG1 221010Z 33001KT 23/13 A2985 RMK A01 T02320128  RH  052%=      5-min Rain = 0
KPG1 221011Z 01001KT 23/13 A2985 RMK A01 T02310131  RH  053%=      5-min Rain = 0
KPG1 221012Z 36002KT 23/13 A2985 RMK A01 T02290130  RH  054%=      5-min Rain = 0
KPG1 221013Z 36002KT 23/13 A2985 RMK A01 T02270131  RH  055%=      5-min Rain = 0
KPG1 221014Z 01002KT 23/13 A2985 RMK A01 T02250131  RH  055%=      5-min Rain = 0
KPG1 221015Z 01002KT 22/13 A2985 RMK A01 T02240130  RH  055%=      5-min Rain = 0
KPG1 221016Z 00002KT 23/13 A2985 RMK A01 T02250130  RH  055%=      5-min Rain = 0
KPG1 221017Z 36002KT 23/13 A2985 RMK A01 T02260132  RH  055%=      5-min Rain = 0
KPG1 221018Z 36003KT 22/13 A2985 RMK A01 T02240132  RH  056%=      5-min Rain = 0
KPG1 221019Z 36003KT 22/13 A2985 RMK A01 T02210131  RH  057%=      5-min Rain = 0
KPG1 221020Z 00004KT 22/13 A2985 RMK A01 T02210132  RH  057%=      5-min Rain = 0
KPG1 221021Z 00003KT 22/13 A2985 RMK A01 T02210132  RH  057%=      5-min Rain = 0
KPG1 221022Z 00003KT 22/13 A2985 RMK A01 T02240132  RH  056%=      5-min Rain = 0
KPG1 221023Z 01003KT 23/13 A2985 RMK A01 T02280133  RH  055%=      5-min Rain = 0
KPG1 221024Z 00003KT 23/13 A2985 RMK A01 T02300133  RH  054%=      5-min Rain = 0
KPG1 221025Z 36002KT 23/13 A2985 RMK A01 T02300134  RH  054%=      5-min Rain = 0
KPG1 221026Z 35002KT 23/13 A2985 RMK A01 T02290133  RH  055%=      5-min Rain = 0
KPG1 221027Z 36002KT 23/13 A2985 RMK A01 T02260133  RH  055%=      5-min Rain = 0
KPG1 221028Z 36003KT 23/13 A2985 RMK A01 T02250133  RH  056%=      5-min Rain = 0
KPG1 221029Z 00002KT 23/13 A2985 RMK A01 T02250132  RH  056%=      5-min Rain = 0
KPG1 221030Z 36002KT 23/13 A2985 RMK A01 T02260133  RH  056%=      5-min Rain = 0
KPG1 221031Z 35001KT 23/13 A2985 RMK A01 T02260133  RH  056%=      5-min Rain = 0
KPG1 221032Z 33001KT 23/13 A2985 RMK A01 T02260133  RH  056%=      5-min Rain = 0
KPG1 221033Z 33001KT 23/13 A2985 RMK A01 T02260132  RH  056%=      5-min Rain = 0
KPG1 221034Z 32001KT 23/13 A2985 RMK A01 T02260132  RH  055%=      5-min Rain = 0
KPG1 221035Z 33001KT 23/13 A2985 RMK A01 T02260132  RH  056%=      5-min Rain = 0
KPG1 221036Z 32000KT 23/13 A2985 RMK A01 T02260132  RH  055%=      5-min Rain = 0
KPG1 221037Z 32001KT 23/13 A2985 RMK A01 T02270132  RH  055%=      5-min Rain = 0
KPG1 221038Z 34000KT 23/13 A2986 RMK A01 T02280132  RH  055%=      5-min Rain = 0
KPG1 221039Z 05000KT 23/13 A2986 RMK A01 T02290133  RH  055%=      5-min Rain = 0
KPG1 221040Z 33000KT 23/13 A2986 RMK A01 T02290133  RH  055%=      5-min Rain = 0
KPG1 221041Z 36000KT 23/13 A2986 RMK A01 T02290133  RH  055%=      5-min Rain = 0
KPG1 221042Z 32000KT 23/13 A2986 RMK A01 T02290132  RH  054%=      5-min Rain = 0
KPG1 221043Z 00000KT 23/13 A2986 RMK A01 T02290132  RH  054%=      5-min Rain = 0
KPG1 221044Z 21000KT 23/13 A2986 RMK A01 T02300133  RH  054%=      5-min Rain = 0
KPG1 221045Z 24000KT 23/13 A2985 RMK A01 T02300133  RH  054%=      5-min Rain = 0
KPG1 221046Z 27002KT 23/13 A2985 RMK A01 T02300133  RH  054%=      5-min Rain = 0
KPG1 221047Z 26002KT 23/13 A2985 RMK A01 T02310133  RH  054%=      5-min Rain = 0
KPG1 221048Z 34001KT 23/13 A2985 RMK A01 T02310133  RH  054%=      5-min Rain = 0
KPG1 221049Z 05001KT 23/13 A2985 RMK A01 T02300133  RH  054%=      5-min Rain = 0
KPG1 221050Z 04002KT 23/13 A2985 RMK A01 T02270134  RH  055%=      5-min Rain = 0
KPG1 221051Z 03001KT 23/13 A2986 RMK A01 T02250133  RH  056%=      5-min Rain = 0
KPG1 221052Z 01000KT 22/13 A2986 RMK A01 T02240133  RH  056%=      5-min Rain = 0
KPG1 221053Z 00000KT 22/13 A2985 RMK A01 T02230133  RH  057%=      5-min Rain = 0
KPG1 221054Z 00000KT 22/13 A2986 RMK A01 T02220133  RH  057%=      5-min Rain = 0
KPG1 221055Z 00000KT 22/13 A2986 RMK A01 T02230133  RH  057%=      5-min Rain = 0
KPG1 221056Z 19001KT 22/13 A2986 RMK A01 T02230133  RH  057%=      5-min Rain = 0
KPG1 221057Z 20001KT 22/13 A2986 RMK A01 T02220134  RH  057%=      5-min Rain = 0
KPG1 221058Z 21001KT 22/13 A2986 RMK A01 T02220133  RH  057%=      5-min Rain = 0
KPG1 221059Z 22002KT 22/13 A2986 RMK A01 T02220132  RH  057%=      5-min Rain = 0
KPG1 221100Z 22002KT 22/13 A2986 RMK A01 T02230131  RH  056%=      5-min Rain = 0
KPG1 221101Z 20002KT 22/13 A2986 RMK A01 T02240132  RH  056%=      5-min Rain = 0
KPG1 221102Z 19002KT 23/13 A2986 RMK A01 T02250132  RH  056%=      5-min Rain = 0
KPG1 221103Z 17002KT 23/13 A2986 RMK A01 T02250132  RH  056%=      5-min Rain = 0
KPG1 221104Z 16002KT 23/13 A2986 RMK A01 T02250133  RH  056%=      5-min Rain = 0
KPG1 221105Z 16002KT 22/13 A2986 RMK A01 T02240133  RH  056%=      5-min Rain = 0
KPG1 221106Z 14002KT 22/13 A2986 RMK A01 T02230132  RH  056%=      5-min Rain = 0
KPG1 221107Z 15002KT 22/13 A2986 RMK A01 T02230133  RH  057%=      5-min Rain = 0
KPG1 221108Z 16001KT 22/13 A2986 RMK A01 T02220132  RH  057%=      5-min Rain = 0
KPG1 221109Z 17002KT 22/13 A2986 RMK A01 T02220132  RH  057%=      5-min Rain = 0
KPG1 221110Z 18002KT 22/13 A2986 RMK A01 T02210132  RH  057%=      5-min Rain = 0
KPG1 221111Z 17002KT 22/13 A2986 RMK A01 T02200132  RH  057%=      5-min Rain = 0
KPG1 221112Z 18002KT 22/13 A2986 RMK A01 T02190131  RH  057%=      5-min Rain = 0
KPG1 221113Z 17002KT 22/13 A2986 RMK A01 T02190131  RH  057%=      5-min Rain = 0
KPG1 221114Z 17002KT 22/13 A2986 RMK A01 T02190130  RH  057%=      5-min Rain = 0
KPG1 221115Z 18001KT 22/13 A2986 RMK A01 T02190130  RH  057%=      5-min Rain = 0
KPG1 221116Z 17000KT 22/13 A2986 RMK A01 T02190130  RH  057%=      5-min Rain = 0
KPG1 221117Z 00000KT 22/13 A2986 RMK A01 T02190130  RH  057%=      5-min Rain = 0
KPG1 221118Z 00000KT 22/13 A2986 RMK A01 T02180128  RH  057%=      5-min Rain = 0
KPG1 221119Z 00000KT 22/13 A2986 RMK A01 T02190128  RH  056%=      5-min Rain = 0
KPG1 221120Z 31001KT 22/13 A2986 RMK A01 T02200127  RH  056%=      5-min Rain = 0
KPG1 221121Z 32001KT 22/13 A2986 RMK A01 T02210127  RH  055%=      5-min Rain = 0
KPG1 221122Z 32002KT 22/13 A2986 RMK A01 T02210126  RH  055%=      5-min Rain = 0
KPG1 221123Z 33002KT 22/13 A2986 RMK A01 T02220126  RH  055%=      5-min Rain = 0
KPG1 221124Z 34002KT 22/13 A2986 RMK A01 T02210126  RH  055%=      5-min Rain = 0
KPG1 221125Z 35002KT 22/13 A2986 RMK A01 T02200126  RH  055%=      5-min Rain = 0
KPG1 221126Z 00003KT 22/13 A2986 RMK A01 T02180127  RH  056%=      5-min Rain = 0
KPG1 221127Z 05002KT 22/13 A2986 RMK A01 T02150128  RH  057%=      5-min Rain = 0
KPG1 221128Z 04003KT 21/13 A2986 RMK A01 T02110129  RH  059%=      5-min Rain = 0
KPG1 221129Z 03004KT 21/13 A2986 RMK A01 T02080129  RH  060%=      5-min Rain = 0
KPG1 221130Z 01004KT 21/13 A2986 RMK A01 T02070128  RH  060%=      5-min Rain = 0
KPG1 221131Z 36003KT 21/13 A2986 RMK A01 T02080127  RH  060%=      5-min Rain = 0
KPG1 221132Z 35003KT 21/13 A2986 RMK A01 T02110127  RH  059%=      5-min Rain = 0
KPG1 221133Z 35004KT 21/13 A2986 RMK A01 T02120127  RH  058%=      5-min Rain = 0
KPG1 221134Z 35004KT 21/13 A2986 RMK A01 T02140127  RH  058%=      5-min Rain = 0
KPG1 221135Z 35004KT 22/13 A2986 RMK A01 T02150127  RH  057%=      5-min Rain = 0
KPG1 221136Z 36004KT 22/13 A2986 RMK A01 T02170126  RH  056%=      5-min Rain = 0
KPG1 221137Z 36004KT 22/13 A2986 RMK A01 T02190127  RH  056%=      5-min Rain = 0
KPG1 221138Z 01004KT 22/13 A2986 RMK A01 T02200128  RH  056%=      5-min Rain = 0
KPG1 221139Z 01005KT 22/13 A2986 RMK A01 T02190128  RH  056%=      5-min Rain = 0
KPG1 221140Z 02004KT 22/13 A2986 RMK A01 T02190129  RH  056%=      5-min Rain = 0
KPG1 221141Z 01005KT 22/13 A2986 RMK A01 T02170129  RH  057%=      5-min Rain = 0
KPG1 221142Z 01004KT 22/13 A2986 RMK A01 T02150128  RH  058%=      5-min Rain = 0
KPG1 221143Z 01004KT 22/13 A2986 RMK A01 T02150128  RH  058%=      5-min Rain = 0
KPG1 221144Z 01004KT 22/13 A2986 RMK A01 T02160129  RH  058%=      5-min Rain = 0
KPG1 221145Z 02006KT 22/13 A2986 RMK A01 T02170130  RH  058%=      5-min Rain = 0
KPG1 221146Z 01005KT 22/13 A2986 RMK A01 T02200132  RH  057%=      5-min Rain = 0
KPG1 221147Z 01006KT 22/13 A2986 RMK A01 T02220132  RH  057%=      5-min Rain = 0
KPG1 221148Z 36006KT 22/13 A2986 RMK A01 T02240133  RH  056%=      5-min Rain = 0
KPG1 221149Z 01007KT 23/13 A2986 RMK A01 T02260134  RH  056%=      5-min Rain = 0
KPG1 221150Z 00006KT 23/14 A2986 RMK A01 T02280135  RH  056%=      5-min Rain = 0
KPG1 221151Z 01007KT 23/14 A2986 RMK A01 T02300135  RH  055%=      5-min Rain = 0
KPG1 221152Z 01007KT 23/14 A2986 RMK A01 T02300136  RH  055%=      5-min Rain = 0
KPG1 221153Z 00007KT 23/14 A2986 RMK A01 T02320136  RH  055%=      5-min Rain = 0
KPG1 221154Z 00007KT 23/14 A2986 RMK A01 T02320135  RH  054%=      5-min Rain = 0
KPG1 221155Z 01007KT 23/14 A2986 RMK A01 T02320136  RH  055%=      5-min Rain = 0
KPG1 221156Z 01005KT 23/14 A2987 RMK A01 T02320137  RH  055%=      5-min Rain = 0
KPG1 221157Z 01007KT 23/14 A2987 RMK A01 T02310138  RH  056%=      5-min Rain = 0
KPG1 221158Z 02007KT 23/14 A2987 RMK A01 T02310140  RH  056%=      5-min Rain = 0
KPG1 221159Z 03005KT 23/14 A2987 RMK A01 T02310140  RH  056%=      5-min Rain = 0
KPG1 221200Z 02005KT 23/14 A2987 RMK A01 T02300137  RH  056%=      5-min Rain = 0
KPG1 221201Z 03005KT 23/14 A2987 RMK A01 T02280141  RH  058%=      5-min Rain = 0
KPG1 221202Z 03005KT 23/14 A2987 RMK A01 T02280141  RH  058%=      5-min Rain = 0
KPG1 221203Z 01006KT 23/14 A2987 RMK A01 T02280141  RH  058%=      5-min Rain = 0
KPG1 221204Z 01007KT 23/15 A2987 RMK A01 T02290145  RH  059%=      5-min Rain = 0
KPG1 221205Z 00008KT 23/15 A2987 RMK A01 T02300145  RH  059%=      5-min Rain = 0
KPG1 221206Z 01008KT 23/14 A2987 RMK A01 T02300144  RH  058%=      5-min Rain = 0
KPG1 221207Z 00008KT 23/15 A2987 RMK A01 T02310145  RH  058%=      5-min Rain = 0
KPG1 221208Z 00009KT 23/15 A2987 RMK A01 T02310146  RH  058%=      5-min Rain = 0
KPG1 221209Z 01008KT 23/15 A2987 RMK A01 T02310148  RH  059%=      5-min Rain = 0
KPG1 221210Z 01008KT 23/15 A2987 RMK A01 T02310150  RH  060%=      5-min Rain = 0
KPG1 221211Z 00008KT 23/15 A2987 RMK A01 T02320149  RH  060%=      5-min Rain = 0
KPG1 221212Z 01008KT 23/15 A2987 RMK A01 T02320150  RH  060%=      5-min Rain = 0
KPG1 221213Z 01008KT 23/15 A2987 RMK A01 T02320151  RH  060%=      5-min Rain = 0
KPG1 221214Z 01008KT 23/15 A2987 RMK A01 T02320151  RH  060%=      5-min Rain = 0
KPG1 221215Z 00009KT 23/15 A2987 RMK A01 T02330151  RH  060%=      5-min Rain = 0
KPG1 221216Z 00007KT 23/15 A2987 RMK A01 T02330152  RH  060%=      5-min Rain = 0
KPG1 221217Z 01009KT 23/15 A2987 RMK A01 T02340151  RH  059%=      5-min Rain = 0
KPG1 221218Z 00008KT 23/15 A2987 RMK A01 T02340150  RH  059%=      5-min Rain = 0
KPG1 221219Z 01008KT 23/15 A2987 RMK A01 T02340151  RH  059%=      5-min Rain = 0
KPG1 221220Z 01007KT 23/15 A2987 RMK A01 T02340151  RH  060%=      5-min Rain = 0
KPG1 221221Z 02007KT 23/15 A2987 RMK A01 T02340152  RH  060%=      5-min Rain = 0
KPG1 221222Z 02007KT 23/15 A2987 RMK A01 T02330153  RH  060%=      5-min Rain = 0
KPG1 221223Z 02006KT 23/15 A2987 RMK A01 T02330152  RH  060%=      5-min Rain = 0
KPG1 221224Z 02006KT 23/15 A2987 RMK A01 T02340153  RH  061%=      5-min Rain = 0
KPG1 221225Z 01006KT 23/15 A2987 RMK A01 T02330154  RH  061%=      5-min Rain = 0
KPG1 221226Z 02007KT 23/16 A2987 RMK A01 T02330155  RH  061%=      5-min Rain = 0
KPG1 221227Z 01006KT 23/16 A2987 RMK A01 T02320155  RH  062%=      5-min Rain = 0
KPG1 221228Z 01007KT 23/16 A2987 RMK A01 T02320155  RH  062%=      5-min Rain = 0
KPG1 221229Z 00007KT 23/16 A2988 RMK A01 T02320156  RH  062%=      5-min Rain = 0
KPG1 221230Z 00007KT 23/16 A2988 RMK A01 T02330156  RH  062%=      5-min Rain = 0
KPG1 221231Z 00007KT 23/16 A2988 RMK A01 T02330157  RH  062%=      5-min Rain = 0
KPG1 221232Z 00008KT 23/16 A2988 RMK A01 T02330157  RH  062%=      5-min Rain = 0
KPG1 221233Z 00007KT 23/16 A2988 RMK A01 T02330157  RH  062%=      5-min Rain = 0
KPG1 221234Z 00007KT 23/16 A2988 RMK A01 T02340157  RH  062%=      5-min Rain = 0
KPG1 221235Z 00007KT 23/16 A2988 RMK A01 T02330158  RH  063%=      5-min Rain = 0
KPG1 221236Z 01007KT 23/16 A2988 RMK A01 T02340158  RH  063%=      5-min Rain = 0
KPG1 221237Z 01007KT 24/16 A2988 RMK A01 T02350159  RH  063%=      5-min Rain = 0
KPG1 221238Z 01007KT 24/16 A2988 RMK A01 T02350160  RH  063%=      5-min Rain = 0
KPG1 221239Z 01008KT 24/16 A2988 RMK A01 T02350160  RH  063%=      5-min Rain = 0
KPG1 221240Z 01008KT 24/16 A2988 RMK A01 T02360161  RH  063%=      5-min Rain = 0
KPG1 221241Z 02009KT 24/16 A2988 RMK A01 T02370162  RH  063%=      5-min Rain = 0
KPG1 221242Z 02009KT 24/16 A2988 RMK A01 T02370161  RH  062%=      5-min Rain = 0
KPG1 221243Z 02009KT 24/16 A2988 RMK A01 T02380161  RH  062%=      5-min Rain = 0
KPG1 221244Z 02008KT 24/16 A2988 RMK A01 T02380162  RH  062%=      5-min Rain = 0
KPG1 221245Z 01009KT 24/16 A2988 RMK A01 T02380162  RH  062%=      5-min Rain = 0
KPG1 221246Z 01009KT 24/16 A2988 RMK A01 T02390161  RH  062%=      5-min Rain = 0
KPG1 221247Z 01010KT 24/16 A2988 RMK A01 T02390161  RH  062%=      5-min Rain = 0
KPG1 221248Z 02009KT 24/16 A2988 RMK A01 T02390162  RH  062%=      5-min Rain = 0
KPG1 221249Z 02009KT 24/16 A2988 RMK A01 T02390162  RH  062%=      5-min Rain = 0
KPG1 221250Z 02009KT 24/16 A2988 RMK A01 T02390161  RH  062%=      5-min Rain = 0
KPG1 221251Z 02009KT 24/16 A2988 RMK A01 T02390161  RH  062%=      5-min Rain = 0
KPG1 221252Z 01009KT 24/16 A2988 RMK A01 T02390162  RH  062%=      5-min Rain = 0
KPG1 221253Z 02008KT 24/16 A2988 RMK A01 T02400163  RH  062%=      5-min Rain = 0
KPG1 221254Z 02008KT 24/16 A2988 RMK A01 T02400162  RH  062%=      5-min Rain = 0
KPG1 221255Z 02007KT 24/16 A2988 RMK A01 T02400162  RH  061%=      5-min Rain = 0
KPG1 221256Z 02008KT 24/16 A2988 RMK A01 T02410162  RH  061%=      5-min Rain = 0
KPG1 221257Z 03007KT 24/16 A2988 RMK A01 T02410162  RH  061%=      5-min Rain = 0
KPG1 221258Z 03007KT 24/16 A2988 RMK A01 T02410162  RH  061%=      5-min Rain = 0
KPG1 221259Z 02008KT 24/16 A2988 RMK A01 T02410162  RH  061%=      5-min Rain = 0
KPG1 221300Z 03007KT 24/16 A2988 RMK A01 T02420162  RH  061%=      5-min Rain = 0
KPG1 221301Z 03007KT 24/16 A2988 RMK A01 T02420162  RH  061%=      5-min Rain = 0
KPG1 221302Z 03007KT 24/16 A2988 RMK A01 T02420162  RH  061%=      5-min Rain = 0
KPG1 221303Z 02008KT 24/16 A2988 RMK A01 T02420162  RH  061%=      5-min Rain = 0
KPG1 221304Z 02008KT 24/16 A2988 RMK A01 T02420162  RH  061%=      5-min Rain = 0
KPG1 221305Z 02008KT 24/16 A2988 RMK A01 T02420162  RH  061%=      5-min Rain = 0
KPG1 221306Z 02007KT 24/16 A2988 RMK A01 T02420162  RH  061%=      5-min Rain = 0
KPG1 221307Z 02008KT 24/16 A2988 RMK A01 T02430162  RH  061%=      5-min Rain = 0
KPG1 221308Z 02007KT 24/16 A2988 RMK A01 T02430162  RH  061%=      5-min Rain = 0
KPG1 221309Z 03007KT 24/16 A2988 RMK A01 T02430162  RH  060%=      5-min Rain = 0
KPG1 221310Z 03007KT 24/16 A2988 RMK A01 T02440162  RH  060%=      5-min Rain = 0
KPG1 221311Z 03007KT 24/16 A2989 RMK A01 T02440162  RH  060%=      5-min Rain = 0
KPG1 221312Z 03008KT 25/16 A2989 RMK A01 T02450163  RH  060%=      5-min Rain = 0
KPG1 221313Z 03006KT 25/16 A2989 RMK A01 T02460163  RH  060%=      5-min Rain = 0
KPG1 221314Z 03008KT 25/16 A2989 RMK A01 T02460164  RH  060%=      5-min Rain = 0
KPG1 221315Z 03007KT 25/16 A2989 RMK A01 T02460163  RH  060%=      5-min Rain = 0
KPG1 221316Z 02007KT 25/16 A2989 RMK A01 T02460163  RH  060%=      5-min Rain = 0
KPG1 221317Z 02007KT 25/16 A2989 RMK A01 T02460163  RH  060%=      5-min Rain = 0
KPG1 221318Z 03007KT 25/16 A2989 RMK A01 T02460163  RH  060%=      5-min Rain = 0
KPG1 221319Z 03007KT 25/16 A2989 RMK A01 T02460162  RH  060%=      5-min Rain = 0
KPG1 221320Z 04006KT 25/16 A2989 RMK A01 T02470162  RH  059%=      5-min Rain = 0
KPG1 221321Z 03006KT 25/16 A2989 RMK A01 T02470161  RH  059%=      5-min Rain = 0
KPG1 221322Z 04006KT 25/16 A2989 RMK A01 T02460161  RH  059%=      5-min Rain = 0
KPG1 221323Z 04005KT 25/16 A2989 RMK A01 T02460161  RH  059%=      5-min Rain = 0
KPG1 221324Z 06004KT 25/16 A2989 RMK A01 T02470162  RH  059%=      5-min Rain = 0
KPG1 221325Z 04003KT 25/16 A2989 RMK A01 T02480162  RH  059%=      5-min Rain = 0
KPG1 221326Z 05005KT 25/16 A2989 RMK A01 T02500163  RH  058%=      5-min Rain = 0
KPG1 221327Z 04002KT 25/16 A2989 RMK A01 T02510162  RH  058%=      5-min Rain = 0
KPG1 221328Z 05003KT 25/16 A2989 RMK A01 T02520163  RH  058%=      5-min Rain = 0
KPG1 221329Z 03002KT 25/16 A2989 RMK A01 T02540163  RH  057%=      5-min Rain = 0
KPG1 221330Z 04003KT 26/16 A2989 RMK A01 T02560163  RH  056%=      5-min Rain = 0
KPG1 221331Z 05003KT 26/16 A299 RMK A01 T02560162  RH  056%=      5-min Rain = 0
KPG1 221332Z 05003KT 26/16 A299 RMK A01 T02560162  RH  056%=      5-min Rain = 0
KPG1 221333Z 05003KT 26/16 A299 RMK A01 T02560161  RH  056%=      5-min Rain = 0
KPG1 221334Z 06002KT 26/16 A299 RMK A01 T02560160  RH  055%=      5-min Rain = 0
KPG1 221335Z 05003KT 26/16 A299 RMK A01 T02560161  RH  056%=      5-min Rain = 0
KPG1 221336Z 04003KT 26/16 A299 RMK A01 T02560161  RH  056%=      5-min Rain = 0
KPG1 221337Z 03002KT 26/16 A299 RMK A01 T02570162  RH  056%=      5-min Rain = 0
KPG1 221338Z 03003KT 26/16 A299 RMK A01 T02570162  RH  056%=      5-min Rain = 0
KPG1 221339Z 02003KT 26/16 A299 RMK A01 T02560161  RH  056%=      5-min Rain = 0
KPG1 221340Z 02003KT 26/16 A299 RMK A01 T02550161  RH  056%=      5-min Rain = 0
KPG1 221341Z 03003KT 25/16 A299 RMK A01 T02540161  RH  056%=      5-min Rain = 0
KPG1 221342Z 03004KT 26/16 A299 RMK A01 T02550162  RH  056%=      5-min Rain = 0
KPG1 221343Z 04005KT 26/16 A299 RMK A01 T02570161  RH  056%=      5-min Rain = 0
KPG1 221344Z 04005KT 26/16 A299 RMK A01 T02550161  RH  056%=      5-min Rain = 0
KPG1 221345Z 04004KT 25/16 A299 RMK A01 T02540161  RH  056%=      5-min Rain = 0
KPG1 221346Z 01003KT 25/16 A299 RMK A01 T02540161  RH  056%=      5-min Rain = 0
KPG1 221347Z 02004KT 25/16 A299 RMK A01 T02540161  RH  056%=      5-min Rain = 0
KPG1 221348Z 02003KT 26/16 A299 RMK A01 T02550160  RH  056%=      5-min Rain = 0
KPG1 221349Z 04003KT 26/16 A299 RMK A01 T02550161  RH  056%=      5-min Rain = 0
KPG1 221350Z 04003KT 26/16 A299 RMK A01 T02570162  RH  056%=      5-min Rain = 0
KPG1 221351Z 05004KT 26/16 A299 RMK A01 T02590160  RH  054%=      5-min Rain = 0
KPG1 221352Z 05004KT 26/16 A299 RMK A01 T02590160  RH  054%=      5-min Rain = 0
KPG1 221353Z 04004KT 26/16 A299 RMK A01 T02580160  RH  055%=      5-min Rain = 0
KPG1 221354Z 04004KT 26/16 A299 RMK A01 T02570160  RH  055%=      5-min Rain = 0
KPG1 221355Z 05004KT 26/16 A299 RMK A01 T02580161  RH  055%=      5-min Rain = 0
KPG1 221356Z 05004KT 26/16 A299 RMK A01 T02590159  RH  054%=      5-min Rain = 0
KPG1 221357Z 06003KT 26/16 A299 RMK A01 T02590158  RH  054%=      5-min Rain = 0
KPG1 221358Z 06003KT 26/16 A299 RMK A01 T02590159  RH  054%=      5-min Rain = 0
KPG1 221359Z 03004KT 26/16 A299 RMK A01 T02610159  RH  053%=      5-min Rain = 0
KPG1 221400Z 03004KT 26/16 A299 RMK A01 T02620158  RH  053%=      5-min Rain = 0
KPG1 221401Z 04004KT 26/16 A299 RMK A01 T02610157  RH  053%=      5-min Rain = 0
KPG1 221402Z 04003KT 26/16 A299 RMK A01 T02600155  RH  052%=      5-min Rain = 0
KPG1 221403Z 04004KT 26/15 A299 RMK A01 T02610154  RH  052%=      5-min Rain = 0
KPG1 221404Z 04005KT 26/15 A299 RMK A01 T02620154  RH  051%=      5-min Rain = 0
KPG1 221405Z 04006KT 26/15 A299 RMK A01 T02630154  RH  051%=      5-min Rain = 0
KPG1 221406Z 05005KT 26/15 A299 RMK A01 T02630153  RH  051%=      5-min Rain = 0
KPG1 221407Z 05004KT 26/15 A299 RMK A01 T02630153  RH  051%=      5-min Rain = 0
KPG1 221408Z 05005KT 26/15 A299 RMK A01 T02620153  RH  051%=      5-min Rain = 0
KPG1 221409Z 05006KT 26/15 A299 RMK A01 T02620152  RH  051%=      5-min Rain = 0
KPG1 221410Z 06006KT 26/15 A2991 RMK A01 T02620154  RH  051%=      5-min Rain = 0
KPG1 221411Z 05006KT 26/15 A2991 RMK A01 T02630153  RH  051%=      5-min Rain = 0
KPG1 221412Z 05005KT 26/15 A2991 RMK A01 T02630153  RH  051%=      5-min Rain = 0
KPG1 221413Z 04007KT 26/15 A2991 RMK A01 T02640153  RH  050%=      5-min Rain = 0
KPG1 221414Z 04006KT 26/15 A2991 RMK A01 T02640153  RH  050%=      5-min Rain = 0
KPG1 221415Z 04005KT 26/15 A299 RMK A01 T02640153  RH  051%=      5-min Rain = 0
KPG1 221416Z 03004KT 27/15 A299 RMK A01 T02650152  RH  050%=      5-min Rain = 0
KPG1 221417Z 05006KT 26/15 A299 RMK A01 T02640152  RH  050%=      5-min Rain = 0
KPG1 221418Z 05005KT 26/15 A299 RMK A01 T02640151  RH  050%=      5-min Rain = 0
KPG1 221419Z 06005KT 27/15 A299 RMK A01 T02650151  RH  050%=      5-min Rain = 0
KPG1 221420Z 05006KT 27/15 A299 RMK A01 T02660151  RH  049%=      5-min Rain = 0
KPG1 221421Z 06006KT 27/15 A299 RMK A01 T02660149  RH  049%=      5-min Rain = 0
KPG1 221422Z 07008KT 27/15 A299 RMK A01 T02660148  RH  048%=      5-min Rain = 0
KPG1 221423Z 07007KT 27/15 A299 RMK A01 T02660148  RH  048%=      5-min Rain = 0
KPG1 221424Z 07007KT 27/15 A299 RMK A01 T02670149  RH  048%=      5-min Rain = 0
KPG1 221425Z 06006KT 27/15 A299 RMK A01 T02680149  RH  048%=      5-min Rain = 0
KPG1 221426Z 07008KT 27/15 A2991 RMK A01 T02680148  RH  048%=      5-min Rain = 0
KPG1 221427Z 07008KT 27/15 A2991 RMK A01 T02680148  RH  048%=      5-min Rain = 0
KPG1 221428Z 06008KT 27/15 A2991 RMK A01 T02680147  RH  048%=      5-min Rain = 0
KPG1 221429Z 07007KT 27/15 A2991 RMK A01 T02670146  RH  048%=      5-min Rain = 0
KPG1 221430Z 06007KT 27/15 A2991 RMK A01 T02660146  RH  048%=      5-min Rain = 0
KPG1 221431Z 06006KT 27/15 A2991 RMK A01 T02680148  RH  048%=      5-min Rain = 0
KPG1 221432Z 07008KT 27/15 A2991 RMK A01 T02700147  RH  047%=      5-min Rain = 0
KPG1 221433Z 07008KT 27/15 A2991 RMK A01 T02690146  RH  047%=      5-min Rain = 0
KPG1 221434Z 06007KT 27/15 A2991 RMK A01 T02690146  RH  047%=      5-min Rain = 0
KPG1 221435Z 06007KT 27/15 A2991 RMK A01 T02720148  RH  047%=      5-min Rain = 0
KPG1 221436Z 07007KT 27/15 A2991 RMK A01 T02720146  RH  046%=      5-min Rain = 0
KPG1 221437Z 06008KT 27/15 A2991 RMK A01 T02720146  RH  046%=      5-min Rain = 0
KPG1 221438Z 05007KT 27/15 A2991 RMK A01 T02710145  RH  046%=      5-min Rain = 0
KPG1 221439Z 04007KT 27/15 A2991 RMK A01 T02710146  RH  046%=      5-min Rain = 0
KPG1 221440Z 07006KT 27/15 A2991 RMK A01 T02720145  RH  046%=      5-min Rain = 0
KPG1 221441Z 06008KT 27/15 A2991 RMK A01 T02730145  RH  046%=      5-min Rain = 0
KPG1 221442Z 07008KT 27/14 A2991 RMK A01 T02720144  RH  045%=      5-min Rain = 0
KPG1 221443Z 06008KT 27/14 A2991 RMK A01 T02710144  RH  046%=      5-min Rain = 0
KPG1 221444Z 06005KT 27/15 A2991 RMK A01 T02700145  RH  046%=      5-min Rain = 0
KPG1 221445Z 05005KT 27/15 A2991 RMK A01 T02700145  RH  046%=      5-min Rain = 0
KPG1 221446Z 05007KT 27/15 A2991 RMK A01 T02710145  RH  046%=      5-min Rain = 0
KPG1 221447Z 07007KT 27/15 A2991 RMK A01 T02720145  RH  046%=      5-min Rain = 0
KPG1 221448Z 06007KT 27/14 A2991 RMK A01 T02710144  RH  046%=      5-min Rain = 0
KPG1 221449Z 06006KT 27/14 A2991 RMK A01 T02700143  RH  046%=      5-min Rain = 0
KPG1 221450Z 07007KT 27/14 A2991 RMK A01 T02690143  RH  046%=      5-min Rain = 0
KPG1 221451Z 07008KT 27/14 A2991 RMK A01 T02700143  RH  046%=      5-min Rain = 0
KPG1 221452Z 07007KT 27/14 A2991 RMK A01 T02710142  RH  045%=      5-min Rain = 0
KPG1 221453Z 05006KT 27/14 A2991 RMK A01 T02710142  RH  045%=      5-min Rain = 0
KPG1 221454Z 04006KT 27/14 A2991 RMK A01 T02710142  RH  045%=      5-min Rain = 0
KPG1 221455Z 07005KT 27/14 A2991 RMK A01 T02720141  RH  045%=      5-min Rain = 0
KPG1 221456Z 08006KT 27/14 A2991 RMK A01 T02730142  RH  045%=      5-min Rain = 0
KPG1 221457Z 07006KT 28/14 A2991 RMK A01 T02750141  RH  044%=      5-min Rain = 0
KPG1 221458Z 06007KT 28/14 A2991 RMK A01 T02770141  RH  043%=      5-min Rain = 0
KPG1 221459Z 07007KT 28/14 A2991 RMK A01 T02780140  RH  043%=      5-min Rain = 0
KPG1 221500Z 06006KT 28/14 A2991 RMK A01 T02760141  RH  044%=      5-min Rain = 0
KPG1 221501Z 05006KT 28/14 A2991 RMK A01 T02760142  RH  044%=      5-min Rain = 0
KPG1 221502Z 05006KT 28/14 A2991 RMK A01 T02760143  RH  044%=      5-min Rain = 0
KPG1 221503Z 06006KT 28/14 A2991 RMK A01 T02770143  RH  044%=      5-min Rain = 0
KPG1 221504Z 07007KT 28/14 A2991 RMK A01 T02760142  RH  044%=      5-min Rain = 0
KPG1 221505Z 08006KT 28/14 A2991 RMK A01 T02750142  RH  044%=      5-min Rain = 0
KPG1 221506Z 08007KT 27/14 A2991 RMK A01 T02740143  RH  044%=      5-min Rain = 0
KPG1 221507Z 08006KT 28/14 A2991 RMK A01 T02750144  RH  045%=      5-min Rain = 0
KPG1 221508Z 08007KT 28/14 A2991 RMK A01 T02760143  RH  044%=      5-min Rain = 0
KPG1 221509Z 09005KT 27/14 A2991 RMK A01 T02740141  RH  044%=      5-min Rain = 0
KPG1 221510Z 09006KT 27/15 A2992 RMK A01 T02730145  RH  045%=      5-min Rain = 0
KPG1 221511Z 06007KT 28/15 A2992 RMK A01 T02750145  RH  045%=      5-min Rain = 0
KPG1 221512Z 06007KT 28/14 A2992 RMK A01 T02760144  RH  044%=      5-min Rain = 0
KPG1 221513Z 05007KT 28/14 A2992 RMK A01 T02760143  RH  044%=      5-min Rain = 0
KPG1 221514Z 04004KT 28/14 A2992 RMK A01 T02770142  RH  044%=      5-min Rain = 0
KPG1 221515Z 03004KT 28/14 A2991 RMK A01 T02760143  RH  044%=      5-min Rain = 0
KPG1 221516Z 07006KT 28/15 A2991 RMK A01 T02770145  RH  044%=      5-min Rain = 0
KPG1 221517Z 08006KT 28/14 A2991 RMK A01 T02800144  RH  043%=      5-min Rain = 0
KPG1 221518Z 08005KT 28/14 A2991 RMK A01 T02800143  RH  043%=      5-min Rain = 0
KPG1 221519Z 07007KT 28/14 A2991 RMK A01 T02800143  RH  043%=      5-min Rain = 0
KPG1 221520Z 07007KT 28/14 A2991 RMK A01 T02820144  RH  043%=      5-min Rain = 0
KPG1 221521Z 08007KT 28/14 A2991 RMK A01 T02820142  RH  042%=      5-min Rain = 0
KPG1 221522Z 08007KT 28/14 A2991 RMK A01 T02810140  RH  042%=      5-min Rain = 0
KPG1 221523Z 06006KT 28/14 A2992 RMK A01 T02800139  RH  042%=      5-min Rain = 0
KPG1 221524Z 06004KT 28/14 A2992 RMK A01 T02790139  RH  042%=      5-min Rain = 0
KPG1 221525Z 07002KT 28/14 A2992 RMK A01 T02780140  RH  043%=      5-min Rain = 0
KPG1 221526Z 06006KT 28/14 A2992 RMK A01 T02810142  RH  042%=      5-min Rain = 0
KPG1 221527Z 08005KT 28/14 A2992 RMK A01 T02810141  RH  042%=      5-min Rain = 0
KPG1 221528Z 08006KT 28/14 A2992 RMK A01 T02790141  RH  043%=      5-min Rain = 0
KPG1 221529Z 08006KT 28/14 A2992 RMK A01 T02800140  RH  042%=      5-min Rain = 0
KPG1 221530Z 09006KT 28/14 A2992 RMK A01 T02820141  RH  042%=      5-min Rain = 0
KPG1 221531Z 07005KT 29/14 A2992 RMK A01 T02850142  RH  042%=      5-min Rain = 0
KPG1 221532Z 05005KT 29/14 A2992 RMK A01 T02880141  RH  041%=      5-min Rain = 0
KPG1 221533Z 08005KT 29/14 A2992 RMK A01 T02890139  RH  040%=      5-min Rain = 0
KPG1 221534Z 07004KT 29/14 A2992 RMK A01 T02880140  RH  040%=      5-min Rain = 0
KPG1 221535Z 07006KT 29/14 A2992 RMK A01 T02890140  RH  040%=      5-min Rain = 0
KPG1 221536Z 08006KT 29/14 A2992 RMK A01 T02870139  RH  040%=      5-min Rain = 0
KPG1 221537Z 08004KT 29/14 A2992 RMK A01 T02850138  RH  041%=      5-min Rain = 0
KPG1 221538Z 09003KT 28/14 A2992 RMK A01 T02830139  RH  041%=      5-min Rain = 0
KPG1 221539Z 08004KT 28/14 A2992 RMK A01 T02840143  RH  042%=      5-min Rain = 0
KPG1 221540Z 08007KT 29/15 A2992 RMK A01 T02860145  RH  042%=      5-min Rain = 0
KPG1 221541Z 07008KT 29/15 A2992 RMK A01 T02860147  RH  042%=      5-min Rain = 0
KPG1 221542Z 06005KT 28/15 A2992 RMK A01 T02840146  RH  043%=      5-min Rain = 0
KPG1 221543Z 04006KT 28/15 A2992 RMK A01 T02830148  RH  044%=      5-min Rain = 0
KPG1 221544Z 06005KT 28/15 A2992 RMK A01 T02830150  RH  044%=      5-min Rain = 0
KPG1 221545Z 05007KT 28/15 A2992 RMK A01 T02840147  RH  043%=      5-min Rain = 0
KPG1 221546Z 05006KT 29/15 A2991 RMK A01 T02850147  RH  043%=      5-min Rain = 0
KPG1 221547Z 04006KT 29/15 A2991 RMK A01 T02870147  RH  042%=      5-min Rain = 0
KPG1 221548Z 07006KT 29/15 A2991 RMK A01 T02870146  RH  042%=      5-min Rain = 0
KPG1 221549Z 05005KT 29/14 A2991 RMK A01 T02890143  RH  041%=      5-min Rain = 0
KPG1 221550Z 06006KT 29/14 A2991 RMK A01 T02920141  RH  040%=      5-min Rain = 0
KPG1 221551Z 07006KT 29/14 A2991 RMK A01 T02920144  RH  040%=      5-min Rain = 0
KPG1 221552Z 06005KT 29/15 A2991 RMK A01 T02920147  RH  041%=      5-min Rain = 0
KPG1 221553Z 04007KT 29/15 A2991 RMK A01 T02930149  RH  042%=      5-min Rain = 0
KPG1 221554Z 07005KT 30/15 A2991 RMK A01 T02950149  RH  041%=      5-min Rain = 0
KPG1 221555Z 07007KT 30/15 A2991 RMK A01 T02970146  RH  040%=      5-min Rain = 0
KPG1 221556Z 06006KT 30/15 A2991 RMK A01 T02970145  RH  040%=      5-min Rain = 0
KPG1 221557Z 06008KT 29/14 A2991 RMK A01 T02940143  RH  040%=      5-min Rain = 0
KPG1 221558Z 06006KT 29/15 A2991 RMK A01 T02930145  RH  040%=      5-min Rain = 0
KPG1 221559Z 06007KT 29/15 A2991 RMK A01 T02940149  RH  041%=      5-min Rain = 0
KPG1 221600Z 06006KT 30/15 A2991 RMK A01 T02960150  RH  041%=      5-min Rain = 0
KPG1 221601Z 07008KT 30/15 A2991 RMK A01 T02950151  RH  042%=      5-min Rain = 0
KPG1 221602Z 06006KT 29/15 A2991 RMK A01 T02940152  RH  042%=      5-min Rain = 0
KPG1 221603Z 04006KT 29/15 A2991 RMK A01 T02930152  RH  042%=      5-min Rain = 0
KPG1 221604Z 06007KT 29/15 A2991 RMK A01 T02940154  RH  042%=      5-min Rain = 0
KPG1 221605Z 08006KT 30/15 A2991 RMK A01 T02950152  RH  042%=      5-min Rain = 0
KPG1 221606Z 05005KT 30/15 A2991 RMK A01 T02950151  RH  041%=      5-min Rain = 0
KPG1 221607Z 05006KT 30/15 A2991 RMK A01 T02950150  RH  041%=      5-min Rain = 0
KPG1 221608Z 06006KT 29/15 A2991 RMK A01 T02940150  RH  042%=      5-min Rain = 0
KPG1 221609Z 07009KT 30/15 A2991 RMK A01 T02950148  RH  041%=      5-min Rain = 0
KPG1 221610Z 06010KT 30/15 A2991 RMK A01 T02980147  RH  040%=      5-min Rain = 0
KPG1 221611Z 06009KT 30/15 A2991 RMK A01 T02960145  RH  040%=      5-min Rain = 0
KPG1 221612Z 08008KT 30/14 A2991 RMK A01 T02950144  RH  040%=      5-min Rain = 0
KPG1 221613Z 08007KT 30/14 A2991 RMK A01 T02950140  RH  039%=      5-min Rain = 0
KPG1 221614Z 07005KT 30/14 A2991 RMK A01 T02960141  RH  039%=      5-min Rain = 0
KPG1 221615Z 05004KT 30/14 A2991 RMK A01 T02970142  RH  039%=      5-min Rain = 0
KPG1 221616Z 07008KT 30/15 A2991 RMK A01 T02960146  RH  040%=      5-min Rain = 0
KPG1 221617Z 07009KT 30/15 A2991 RMK A01 T02960145  RH  040%=      5-min Rain = 0
KPG1 221618Z 07008KT 30/15 A2991 RMK A01 T02960145  RH  040%=      5-min Rain = 0
KPG1 221619Z 05007KT 30/15 A2991 RMK A01 T02960147  RH  040%=      5-min Rain = 0
KPG1 221620Z 06006KT 30/14 A2991 RMK A01 T02970142  RH  039%=      5-min Rain = 0
KPG1 221621Z 08006KT 30/14 A2991 RMK A01 T02970142  RH  039%=      5-min Rain = 0
KPG1 221622Z 09005KT 30/14 A2991 RMK A01 T02970144  RH  039%=      5-min Rain = 0
KPG1 221623Z 07009KT 30/15 A2991 RMK A01 T03000148  RH  040%=      5-min Rain = 0
KPG1 221624Z 06007KT 30/15 A2991 RMK A01 T03020149  RH  039%=      5-min Rain = 0
KPG1 221625Z 07011KT 30/15 A2991 RMK A01 T03020148  RH  039%=      5-min Rain = 0
KPG1 221626Z 08007KT 30/15 A2991 RMK A01 T03010145  RH  039%=      5-min Rain = 0
KPG1 221627Z 10009KT 30/15 A2991 RMK A01 T02990145  RH  039%=      5-min Rain = 0
KPG1 221628Z 09010KT 30/15 A2991 RMK A01 T02970147  RH  040%=      5-min Rain = 0
KPG1 221629Z 09006KT 30/15 A2991 RMK A01 T02960147  RH  040%=      5-min Rain = 0
KPG1 221630Z 09005KT 30/15 A2991 RMK A01 T02970148  RH  040%=      5-min Rain = 0
KPG1 221631Z 07010KT 30/15 A2991 RMK A01 T02980147  RH  040%=      5-min Rain = 0
KPG1 221632Z 07011KT 30/14 A2991 RMK A01 T03010141  RH  038%=      5-min Rain = 0
KPG1 221633Z 06007KT 30/14 A2991 RMK A01 T03000137  RH  037%=      5-min Rain = 0
KPG1 221634Z 07010KT 30/14 A2991 RMK A01 T02990136  RH  037%=      5-min Rain = 0
KPG1 221635Z 07009KT 30/13 A2991 RMK A01 T02990132  RH  036%=      5-min Rain = 0
KPG1 221636Z 06008KT 30/13 A2991 RMK A01 T02990129  RH  035%=      5-min Rain = 0
KPG1 221637Z 08008KT 30/13 A2991 RMK A01 T02990131  RH  036%=      5-min Rain = 0
KPG1 221638Z 09006KT 30/13 A2991 RMK A01 T03000132  RH  036%=      5-min Rain = 0
KPG1 221639Z 08004KT 30/13 A2991 RMK A01 T03030133  RH  035%=      5-min Rain = 0
KPG1 221640Z 07006KT 30/13 A2991 RMK A01 T03040134  RH  035%=      5-min Rain = 0
KPG1 221641Z 06007KT 30/14 A2991 RMK A01 T03030136  RH  036%=      5-min Rain = 0
KPG1 221642Z 07006KT 30/14 A2991 RMK A01 T03030141  RH  037%=      5-min Rain = 0
KPG1 221643Z 06006KT 31/14 A2991 RMK A01 T03050141  RH  037%=      5-min Rain = 0
KPG1 221644Z 06008KT 31/14 A2991 RMK A01 T03050142  RH  037%=      5-min Rain = 0
KPG1 221645Z 06008KT 31/14 A2991 RMK A01 T03050141  RH  037%=      5-min Rain = 0
KPG1 221646Z 07009KT 31/14 A2991 RMK A01 T03080138  RH  035%=      5-min Rain = 0
KPG1 221647Z 08009KT 31/14 A2991 RMK A01 T03080137  RH  035%=      5-min Rain = 0
KPG1 221648Z 06007KT 31/14 A2991 RMK A01 T03080135  RH  035%=      5-min Rain = 0
KPG1 221649Z 05005KT 31/14 A2991 RMK A01 T03070136  RH  035%=      5-min Rain = 0
KPG1 221650Z 05007KT 31/14 A2991 RMK A01 T03070136  RH  035%=      5-min Rain = 0
KPG1 221651Z 04002G7KT 31/14 A2991 RMK A01 T03090136  RH  035%=      5-min Rain = 0
KPG1 221652Z 04005G10KT 31/14 A2991 RMK A01 T03120137  RH  034%=      5-min Rain = 0
KPG1 221653Z 02006KT 31/14 A2991 RMK A01 T03130136  RH  034%=      5-min Rain = 0
KPG1 221654Z 08006KT 31/14 A2991 RMK A01 T03110136  RH  034%=      5-min Rain = 0
KPG1 221655Z 09008KT 31/14 A2991 RMK A01 T03100135  RH  034%=      5-min Rain = 0
KPG1 221656Z 09009KT 31/14 A2991 RMK A01 T03100136  RH  035%=      5-min Rain = 0
KPG1 221657Z 07007KT 31/14 A2991 RMK A01 T03100135  RH  034%=      5-min Rain = 0
KPG1 221658Z 05006KT 31/13 A2991 RMK A01 T03100133  RH  034%=      5-min Rain = 0
KPG1 221659Z 07008KT 31/13 A2991 RMK A01 T03090130  RH  033%=      5-min Rain = 0
KPG1 221700Z 08008KT 31/13 A2991 RMK A01 T03100129  RH  033%=      5-min Rain = 0
KPG1 221701Z 08007KT 31/13 A2991 RMK A01 T03100128  RH  033%=      5-min Rain = 0
KPG1 221702Z 06008KT 31/13 A2991 RMK A01 T03100129  RH  033%=      5-min Rain = 0
KPG1 221703Z 07006KT 31/13 A2991 RMK A01 T03110128  RH  033%=      5-min Rain = 0
KPG1 221704Z 07008KT 31/13 A2991 RMK A01 T03090130  RH  033%=      5-min Rain = 0
KPG1 221705Z 07011KT 31/13 A2991 RMK A01 T03080132  RH  034%=      5-min Rain = 0
KPG1 221706Z 07010KT 31/13 A2991 RMK A01 T03090132  RH  034%=      5-min Rain = 0
KPG1 221707Z 08009KT 31/13 A2991 RMK A01 T03080132  RH  034%=      5-min Rain = 0
KPG1 221708Z 08007KT 31/13 A2991 RMK A01 T03070133  RH  034%=      5-min Rain = 0
KPG1 221709Z 08008KT 31/13 A2991 RMK A01 T03060134  RH  035%=      5-min Rain = 0
KPG1 221710Z 07005KT 31/13 A2991 RMK A01 T03060134  RH  035%=      5-min Rain = 0
KPG1 221711Z 10004KT 31/14 A2991 RMK A01 T03090135  RH  035%=      5-min Rain = 0
KPG1 221712Z 08002KT 31/13 A2991 RMK A01 T03100133  RH  034%=      5-min Rain = 0
KPG1 221713Z 11004KT 31/14 A2991 RMK A01 T03130136  RH  034%=      5-min Rain = 0
KPG1 221714Z 08003KT 32/13 A2991 RMK A01 T03160134  RH  033%=      5-min Rain = 0
KPG1 221715Z 06005KT 32/13 A2991 RMK A01 T03200134  RH  032%=      5-min Rain = 0
KPG1 221716Z 06009KT 32/13 A2991 RMK A01 T03230130  RH  031%=      5-min Rain = 0
KPG1 221717Z 08009KT 32/13 A2991 RMK A01 T03240130  RH  031%=      5-min Rain = 0
KPG1 221718Z 10009KT 32/13 A2991 RMK A01 T03210129  RH  031%=      5-min Rain = 0
KPG1 221719Z 09010KT 32/13 A2991 RMK A01 T03210127  RH  031%=      5-min Rain = 0
KPG1 221720Z 08010KT 32/13 A2991 RMK A01 T03170125  RH  031%=      5-min Rain = 0
KPG1 221721Z 06007KT 31/13 A2991 RMK A01 T03130125  RH  032%=      5-min Rain = 0
KPG1 221722Z 05009KT 31/12 A2991 RMK A01 T03130124  RH  032%=      5-min Rain = 0
KPG1 221723Z 08008KT 32/13 A2991 RMK A01 T03160126  RH  031%=      5-min Rain = 0
KPG1 221724Z 07007KT 32/12 A2991 RMK A01 T03180123  RH  030%=      5-min Rain = 0
KPG1 221725Z 09007KT 32/12 A299 RMK A01 T03150121  RH  031%=      5-min Rain = 0
KPG1 221726Z 12003KT 31/12 A299 RMK A01 T03120121  RH  031%=      5-min Rain = 0
KPG1 221727Z 08003KT 31/12 A299 RMK A01 T03110120  RH  031%=      5-min Rain = 0
KPG1 221728Z 04008KT 31/12 A299 RMK A01 T03120121  RH  031%=      5-min Rain = 0
KPG1 221729Z 04007KT 31/12 A299 RMK A01 T03120118  RH  030%=      5-min Rain = 0
KPG1 221730Z 03007KT 31/12 A299 RMK A01 T03120116  RH  030%=      5-min Rain = 0
KPG1 221731Z 06008KT 31/12 A299 RMK A01 T03140118  RH  030%=      5-min Rain = 0
KPG1 221732Z 07009KT 32/12 A299 RMK A01 T03170117  RH  029%=      5-min Rain = 0
KPG1 221733Z 08010KT 32/12 A299 RMK A01 T03170116  RH  029%=      5-min Rain = 0
KPG1 221734Z 07006KT 32/11 A299 RMK A01 T03170111  RH  028%=      5-min Rain = 0
KPG1 221735Z 06006KT 32/11 A299 RMK A01 T03170109  RH  028%=      5-min Rain = 0
KPG1 221736Z 06006KT 32/11 A299 RMK A01 T03170113  RH  029%=      5-min Rain = 0
KPG1 221737Z 05002KT 32/12 A299 RMK A01 T03170115  RH  029%=      5-min Rain = 0
KPG1 221738Z 07005KT 32/12 A299 RMK A01 T03210121  RH  029%=      5-min Rain = 0
KPG1 221739Z 06007KT 33/12 A299 RMK A01 T03250122  RH  029%=      5-min Rain = 0
KPG1 221740Z 03009KT 33/12 A299 RMK A01 T03270115  RH  027%=      5-min Rain = 0
KPG1 221741Z 04010KT 33/11 A299 RMK A01 T03260114  RH  027%=      5-min Rain = 0
KPG1 221742Z 04006KT 33/11 A299 RMK A01 T03280112  RH  027%=      5-min Rain = 0
KPG1 221743Z 02008KT 33/11 A299 RMK A01 T03270109  RH  026%=      5-min Rain = 0
KPG1 221744Z 02006KT 33/11 A299 RMK A01 T03260105  RH  026%=      5-min Rain = 0
KPG1 221745Z 02007KT 33/11 A299 RMK A01 T03270107  RH  026%=      5-min Rain = 0
KPG1 221746Z 01006KT 32/11 A299 RMK A01 T03240107  RH  026%=      5-min Rain = 0
KPG1 221747Z 01006KT 32/11 A299 RMK A01 T03220113  RH  028%=      5-min Rain = 0
KPG1 221748Z 05007KT 32/12 A299 RMK A01 T03230118  RH  029%=      5-min Rain = 0
KPG1 221749Z 06008KT 33/12 A299 RMK A01 T03270117  RH  028%=      5-min Rain = 0
KPG1 221750Z 02007KT 33/12 A299 RMK A01 T03280115  RH  027%=      5-min Rain = 0
KPG1 221751Z 01007KT 33/11 A299 RMK A01 T03280114  RH  027%=      5-min Rain = 0
KPG1 221752Z 09006G11KT 33/12 A299 RMK A01 T03250116  RH  028%=      5-min Rain = 0
KPG1 221753Z 11009KT 33/11 A299 RMK A01 T03260112  RH  027%=      5-min Rain = 0
KPG1 221754Z 12007KT 32/11 A299 RMK A01 T03240110  RH  027%=      5-min Rain = 0
KPG1 221755Z 10007KT 32/11 A2989 RMK A01 T03230112  RH  027%=      5-min Rain = 0
KPG1 221756Z 07004KT 32/11 A299 RMK A01 T03230112  RH  027%=      5-min Rain = 0
KPG1 221757Z 05001KT 32/11 A2989 RMK A01 T03220111  RH  028%=      5-min Rain = 0
KPG1 221758Z 10009KT 32/11 A2989 RMK A01 T03240111  RH  027%=      5-min Rain = 0
KPG1 221759Z 07008KT 33/11 A2989 RMK A01 T03250109  RH  027%=      5-min Rain = 0
KPG1 221800Z 07009KT 33/11 A2989 RMK A01 T03270110  RH  026%=      5-min Rain = 0
KPG1 221801Z 07010KT 33/11 A2989 RMK A01 T03300107  RH  026%=      5-min Rain = 0
KPG1 221802Z 07010KT 33/10 A2989 RMK A01 T03320103  RH  025%=      5-min Rain = 0
KPG1 221803Z 07009KT 33/10 A2989 RMK A01 T03310102  RH  025%=      5-min Rain = 0
KPG1 221804Z 06010KT 33/10 A2989 RMK A01 T03310102  RH  025%=      5-min Rain = 0
KPG1 221805Z 06010KT 33/10 A299 RMK A01 T03270100  RH  025%=      5-min Rain = 0
KPG1 221806Z 07006G11KT 32/10 A299 RMK A01 T03240097  RH  025%=      5-min Rain = 0
KPG1 221807Z 06004KT 33/10 A2989 RMK A01 T03260100  RH  025%=      5-min Rain = 0
KPG1 221808Z 05004KT 33/10 A2989 RMK A01 T03260100  RH  025%=      5-min Rain = 0
KPG1 221809Z 04007G12KT 33/10 A2989 RMK A01 T03250101  RH  025%=      5-min Rain = 0
KPG1 221810Z 06010KT 32/10 A2989 RMK A01 T03240101  RH  025%=      5-min Rain = 0
KPG1 221811Z 05011KT 33/10 A2989 RMK A01 T03270100  RH  025%=      5-min Rain = 0
KPG1 221812Z 07011KT 33/10 A2989 RMK A01 T03290099  RH  024%=      5-min Rain = 0
KPG1 221813Z 07009KT 33/10 A2989 RMK A01 T03280095  RH  024%=      5-min Rain = 0
KPG1 221814Z 07006KT 33/10 A2989 RMK A01 T03270095  RH  024%=      5-min Rain = 0
KPG1 221815Z 11002KT 33/09 A2989 RMK A01 T03290093  RH  023%=      5-min Rain = 0
KPG1 221816Z 04003KT 33/09 A2989 RMK A01 T03320093  RH  023%=      5-min Rain = 0
KPG1 221817Z 05002KT 33/10 A2989 RMK A01 T03320096  RH  024%=      5-min Rain = 0
KPG1 221818Z 01002KT 34/10 A2989 RMK A01 T03360101  RH  024%=      5-min Rain = 0
KPG1 221819Z 08002KT 34/10 A2989 RMK A01 T03400099  RH  023%=      5-min Rain = 0
KPG1 221820Z 11007KT 34/10 A2989 RMK A01 T03400102  RH  023%=      5-min Rain = 0
KPG1 221821Z 07005G10KT 34/10 A2989 RMK A01 T03360098  RH  023%=      5-min Rain = 0
KPG1 221822Z 03006KT 33/10 A2989 RMK A01 T03310096  RH  024%=      5-min Rain = 0
KPG1 221823Z 05004KT 33/10 A2989 RMK A01 T03330099  RH  024%=      5-min Rain = 0
KPG1 221824Z 06009KT 34/10 A2988 RMK A01 T03380101  RH  023%=      5-min Rain = 0
KPG1 221825Z 09012KT 34/10 A2988 RMK A01 T03390098  RH  023%=      5-min Rain = 0
KPG1 221826Z 07011KT 34/10 A2988 RMK A01 T03380095  RH  023%=      5-min Rain = 0
KPG1 221827Z 03010KT 34/09 A2988 RMK A01 T03390090  RH  022%=      5-min Rain = 0
KPG1 221828Z 05010KT 34/09 A2988 RMK A01 T03400086  RH  021%=      5-min Rain = 0
KPG1 221829Z 03007KT 34/09 A2988 RMK A01 T03370086  RH  021%=      5-min Rain = 0
KPG1 221830Z 03010KT 34/08 A2988 RMK A01 T03350084  RH  021%=      5-min Rain = 0
KPG1 221831Z 01009KT 33/08 A2988 RMK A01 T03340083  RH  021%=      5-min Rain = 0
KPG1 221832Z 00008KT 33/08 A2988 RMK A01 T03320082  RH  021%=      5-min Rain = 0
KPG1 221833Z 00007KT 33/08 A2988 RMK A01 T03320082  RH  021%=      5-min Rain = 0
KPG1 221834Z 01009KT 33/08 A2988 RMK A01 T03330079  RH  021%=      5-min Rain = 0
KPG1 221835Z 04010KT 34/08 A2988 RMK A01 T03350075  RH  020%=      5-min Rain = 0
KPG1 221836Z 02007KT 33/07 A2988 RMK A01 T03330070  RH  020%=      5-min Rain = 0
KPG1 221837Z 35004KT 34/07 A2988 RMK A01 T03350074  RH  020%=      5-min Rain = 0
KPG1 221838Z 06006KT 34/08 A2988 RMK A01 T03360076  RH  020%=      5-min Rain = 0
KPG1 221839Z 07011KT 34/07 A2988 RMK A01 T03370073  RH  019%=      5-min Rain = 0
KPG1 221840Z 09009KT 34/07 A2988 RMK A01 T03350072  RH  020%=      5-min Rain = 0
KPG1 221841Z 07012KT 33/08 A2988 RMK A01 T03340075  RH  020%=      5-min Rain = 0
KPG1 221842Z 05008KT 34/08 A2988 RMK A01 T03400077  RH  020%=      5-min Rain = 0
KPG1 221843Z 09006KT 34/07 A2988 RMK A01 T03440065  RH  018%=      5-min Rain = 0
KPG1 221844Z 06008KT 34/06 A2988 RMK A01 T03410061  RH  018%=      5-min Rain = 0
KPG1 221845Z 00004KT 34/06 A2988 RMK A01 T03390060  RH  018%=      5-min Rain = 0
KPG1 221846Z 33002KT 34/06 A2988 RMK A01 T03360063  RH  018%=      5-min Rain = 0
KPG1 221847Z 02003KT 34/07 A2988 RMK A01 T03380066  RH  019%=      5-min Rain = 0
KPG1 221848Z 04005KT 34/06 A2988 RMK A01 T03400064  RH  018%=      5-min Rain = 0
KPG1 221849Z 05007KT 34/06 A2988 RMK A01 T03410061  RH  017%=      5-min Rain = 0
KPG1 221850Z 05009KT 34/05 A2988 RMK A01 T03440049  RH  016%=      5-min Rain = 0
KPG1 221851Z 04009KT 34/04 A2987 RMK A01 T03400043  RH  016%=      5-min Rain = 0
KPG1 221852Z 05008KT 34/04 A2987 RMK A01 T03390042  RH  016%=      5-min Rain = 0
KPG1 221853Z 08011KT 34/03 A2987 RMK A01 T03400033  RH  015%=      5-min Rain = 0
KPG1 221854Z 08007KT 34/03 A2987 RMK A01 T03370031  RH  015%=      5-min Rain = 0
KPG1 221855Z 04006KT 34/03 A2987 RMK A01 T03360029  RH  014%=      5-min Rain = 0
KPG1 221856Z 01006KT 34/02 A2987 RMK A01 T03370016  RH  013%=      5-min Rain = 0
KPG1 221857Z 03005KT 34/02 A2987 RMK A01 T03370019  RH  013%=      5-min Rain = 0
KPG1 221858Z 06009KT 34/04 A2987 RMK A01 T03360037  RH  015%=      5-min Rain = 0
KPG1 221859Z 10009KT 34/04 A2987 RMK A01 T03400036  RH  015%=      5-min Rain = 0
KPG1 221900Z 10007KT 34/02 A2987 RMK A01 T03420018  RH  013%=      5-min Rain = 0
KPG1 221901Z 08009G14KT 34/02 A2987 RMK A01 T03420015  RH  013%=      5-min Rain = 0
KPG1 221902Z 06009KT 34/03 A2987 RMK A01 T03430032  RH  014%=      5-min Rain = 0
KPG1 221903Z 04010KT 35/03 A2987 RMK A01 T03450033  RH  014%=      5-min Rain = 0
KPG1 221904Z 04009KT 34/03 A2987 RMK A01 T03440028  RH  014%=      5-min Rain = 0
KPG1 221905Z 03008KT 34/03 A2987 RMK A01 T03440027  RH  014%=      5-min Rain = 0
KPG1 221906Z 02009KT 35/02 A2987 RMK A01 T03460019  RH  013%=      5-min Rain = 0
KPG1 221907Z 02006KT 35/02 A2987 RMK A01 T03460016  RH  013%=      5-min Rain = 0
KPG1 221908Z 01006KT 35/01 A2987 RMK A01 T03450009  RH  012%=      5-min Rain = 0
KPG1 221909Z 36005KT 35/01 A2987 RMK A01 T03450012  RH  012%=      5-min Rain = 0
KPG1 221910Z 34003KT 35/03 A2987 RMK A01 T03450034  RH  014%=      5-min Rain = 0
KPG1 221911Z 00004KT 34/04 A2987 RMK A01 T03440037  RH  015%=      5-min Rain = 0
KPG1 221912Z 01004KT 35/04 A2987 RMK A01 T03450038  RH  015%=      5-min Rain = 0
KPG1 221913Z 01002KT 35/04 A2987 RMK A01 T03490042  RH  015%=      5-min Rain = 0
KPG1 221914Z 02003KT 35/04 A2987 RMK A01 T03510043  RH  015%=      5-min Rain = 0
KPG1 221915Z 36004KT 35/06 A2987 RMK A01 T03530055  RH  016%=      5-min Rain = 0
KPG1 221916Z 07002KT 35/05 A2987 RMK A01 T03520053  RH  016%=      5-min Rain = 0
KPG1 221917Z 05003KT 35/05 A2987 RMK A01 T03490054  RH  016%=      5-min Rain = 0
KPG1 221918Z 05007KT 35/05 A2987 RMK A01 T03490049  RH  016%=      5-min Rain = 0
KPG1 221919Z 12008KT 35/05 A2987 RMK A01 T03520053  RH  016%=      5-min Rain = 0
KPG1 221920Z 13008KT 35/05 A2987 RMK A01 T03530051  RH  015%=      5-min Rain = 0
KPG1 221921Z 13007KT 35/05 A2987 RMK A01 T03480051  RH  016%=      5-min Rain = 0
KPG1 221922Z 13010KT 35/05 A2986 RMK A01 T03470052  RH  016%=      5-min Rain = 0
KPG1 221923Z 14009KT 35/05 A2986 RMK A01 T03480050  RH  016%=      5-min Rain = 0
KPG1 221924Z 14008KT 35/05 A2986 RMK A01 T03470049  RH  016%=      5-min Rain = 0
KPG1 221925Z 14009KT 35/05 A2986 RMK A01 T03470051  RH  016%=      5-min Rain = 0
KPG1 221926Z 10008KT 35/05 A2986 RMK A01 T03500051  RH  016%=      5-min Rain = 0
KPG1 221927Z 10007KT 35/05 A2986 RMK A01 T03490050  RH  016%=      5-min Rain = 0
KPG1 221928Z 10007KT 34/05 A2986 RMK A01 T03440047  RH  016%=      5-min Rain = 0
KPG1 221929Z 10010KT 34/04 A2986 RMK A01 T03430044  RH  016%=      5-min Rain = 0
KPG1 221930Z 09012KT 34/05 A2986 RMK A01 T03420046  RH  016%=      5-min Rain = 0
KPG1 221931Z 08008G13KT 34/05 A2986 RMK A01 T03400050  RH  016%=      5-min Rain = 0
KPG1 221932Z 13003KT 34/05 A2986 RMK A01 T03410048  RH  016%=      5-min Rain = 0
KPG1 221933Z 13009G14KT 34/05 A2986 RMK A01 T03430049  RH  016%=      5-min Rain = 0
KPG1 221934Z 12013KT 35/05 A2986 RMK A01 T03480048  RH  015%=      5-min Rain = 0
KPG1 221935Z 13006KT 35/05 A2986 RMK A01 T03510048  RH  015%=      5-min Rain = 0
KPG1 221936Z 13002KT 35/04 A2986 RMK A01 T03510044  RH  015%=      5-min Rain = 0
KPG1 221937Z 10001KT 35/04 A2986 RMK A01 T03470041  RH  015%=      5-min Rain = 0
KPG1 221938Z 34002KT 35/04 A2986 RMK A01 T03450044  RH  015%=      5-min Rain = 0
KPG1 221939Z 32002KT 35/05 A2986 RMK A01 T03470045  RH  015%=      5-min Rain = 0
KPG1 221940Z 06007KT 35/04 A2986 RMK A01 T03480044  RH  015%=      5-min Rain = 0
KPG1 221941Z 06011KT 35/05 A2986 RMK A01 T03500045  RH  015%=      5-min Rain = 0
KPG1 221942Z 09011KT 35/05 A2986 RMK A01 T03510045  RH  015%=      5-min Rain = 0
KPG1 221943Z 07006KT 35/04 A2986 RMK A01 T03520044  RH  015%=      5-min Rain = 0
KPG1 221944Z 06010KT 35/04 A2986 RMK A01 T03520042  RH  015%=      5-min Rain = 0
KPG1 221945Z 07011KT 35/04 A2986 RMK A01 T03490037  RH  014%=      5-min Rain = 0
KPG1 221946Z 06008KT 35/04 A2986 RMK A01 T03490038  RH  014%=      5-min Rain = 0
KPG1 221947Z 02006KT 35/04 A2986 RMK A01 T03510035  RH  014%=      5-min Rain = 0
KPG1 221948Z 07005KT 35/04 A2986 RMK A01 T03490037  RH  014%=      5-min Rain = 0
KPG1 221949Z 09009KT 35/04 A2985 RMK A01 T03490039  RH  014%=      5-min Rain = 0
KPG1 221950Z 09006KT 35/04 A2985 RMK A01 T03460038  RH  015%=      5-min Rain = 0
KPG1 221951Z 10008KT 35/04 A2985 RMK A01 T03470041  RH  015%=      5-min Rain = 0
KPG1 221952Z 12011KT 35/04 A2985 RMK A01 T03490040  RH  015%=      5-min Rain = 0
KPG1 221953Z 12009KT 35/04 A2985 RMK A01 T03490042  RH  015%=      5-min Rain = 0
KPG1 221954Z 11008KT 35/04 A2985 RMK A01 T03500044  RH  015%=      5-min Rain = 0
KPG1 221955Z 13010KT 36/05 A2985 RMK A01 T03550045  RH  015%=      5-min Rain = 0
KPG1 221956Z 12007KT 36/04 A2985 RMK A01 T03550041  RH  014%=      5-min Rain = 0
KPG1 221957Z 12009KT 35/04 A2985 RMK A01 T03520041  RH  014%=      5-min Rain = 0
KPG1 221958Z 12007KT 35/04 A2985 RMK A01 T03520039  RH  014%=      5-min Rain = 0
KPG1 221959Z 10007KT 35/04 A2985 RMK A01 T03500041  RH  015%=      5-min Rain = 0
KPG1 222000Z 08007KT 35/04 A2985 RMK A01 T03520042  RH  015%=      5-min Rain = 0
KPG1 222001Z 07010KT 35/04 A2985 RMK A01 T03530043  RH  014%=      5-min Rain = 0
KPG1 222002Z 06008KT 35/04 A2985 RMK A01 T03490040  RH  015%=      5-min Rain = 0
KPG1 222003Z 08005KT 35/04 A2985 RMK A01 T03460044  RH  015%=      5-min Rain = 0
KPG1 222004Z 06005KT 35/04 A2985 RMK A01 T03460041  RH  015%=      5-min Rain = 0
KPG1 222005Z 32002KT 35/04 A2985 RMK A01 T03450040  RH  015%=      5-min Rain = 0
KPG1 222006Z 09005G11KT 34/04 A2985 RMK A01 T03420041  RH  015%=      5-min Rain = 0
KPG1 222007Z 08006G11KT 34/04 A2985 RMK A01 T03440043  RH  015%=      5-min Rain = 0
KPG1 222008Z 04008KT 35/05 A2985 RMK A01 T03470046  RH  015%=      5-min Rain = 0
KPG1 222009Z 04007KT 35/05 A2985 RMK A01 T03510048  RH  015%=      5-min Rain = 0
KPG1 222010Z 04010KT 36/05 A2985 RMK A01 T03550047  RH  015%=      5-min Rain = 0
KPG1 222011Z 05009KT 36/05 A2985 RMK A01 T03550046  RH  015%=      5-min Rain = 0
KPG1 222012Z 04007KT 36/05 A2985 RMK A01 T03550045  RH  015%=      5-min Rain = 0
KPG1 222013Z 03007KT 35/04 A2984 RMK A01 T03520043  RH  015%=      5-min Rain = 0
KPG1 222014Z 04007KT 35/05 A2984 RMK A01 T03500046  RH  015%=      5-min Rain = 0
KPG1 222015Z 06008KT 35/05 A2984 RMK A01 T03520045  RH  015%=      5-min Rain = 0
KPG1 222016Z 08010KT 35/05 A2984 RMK A01 T03510046  RH  015%=      5-min Rain = 0
KPG1 222017Z 09007KT 35/05 A2984 RMK A01 T03540046  RH  015%=      5-min Rain = 0
KPG1 222018Z 07009KT 35/04 A2984 RMK A01 T03540043  RH  014%=      5-min Rain = 0
KPG1 222019Z 08008KT 35/04 A2984 RMK A01 T03510042  RH  015%=      5-min Rain = 0
KPG1 222020Z 10003KT 35/04 A2984 RMK A01 T03500043  RH  015%=      5-min Rain = 0
KPG1 222021Z 13005KT 35/04 A2984 RMK A01 T03480041  RH  015%=      5-min Rain = 0
KPG1 222022Z 03002KT 35/04 A2984 RMK A01 T03470041  RH  015%=      5-min Rain = 0
KPG1 222023Z 33003KT 35/04 A2984 RMK A01 T03470040  RH  015%=      5-min Rain = 0
KPG1 222024Z 30001KT 35/04 A2984 RMK A01 T03460041  RH  015%=      5-min Rain = 0
KPG1 222025Z 19001KT 35/04 A2984 RMK A01 T03470043  RH  015%=      5-min Rain = 0
KPG1 222026Z 10004KT 35/05 A2984 RMK A01 T03520050  RH  015%=      5-min Rain = 0
KPG1 222027Z 11007KT 36/05 A2984 RMK A01 T03550050  RH  015%=      5-min Rain = 0
KPG1 222028Z 09007KT 36/05 A2984 RMK A01 T03570051  RH  015%=      5-min Rain = 0
KPG1 222029Z 12007KT 36/05 A2984 RMK A01 T03600046  RH  014%=      5-min Rain = 0
KPG1 222030Z 12008KT 36/04 A2984 RMK A01 T03580043  RH  014%=      5-min Rain = 0
KPG1 222031Z 14007KT 35/04 A2984 RMK A01 T03540042  RH  014%=      5-min Rain = 0
KPG1 222032Z 12007KT 35/04 A2984 RMK A01 T03540044  RH  015%=      5-min Rain = 0
KPG1 222033Z 13009KT 35/04 A2984 RMK A01 T03530043  RH  014%=      5-min Rain = 0
KPG1 222034Z 13008KT 35/04 A2984 RMK A01 T03510042  RH  015%=      5-min Rain = 0
KPG1 222035Z 13009KT 35/04 A2984 RMK A01 T03500043  RH  015%=      5-min Rain = 0
KPG1 222036Z 14009KT 35/04 A2984 RMK A01 T03510043  RH  015%=      5-min Rain = 0
KPG1 222037Z 13006KT 35/04 A2984 RMK A01 T03510042  RH  015%=      5-min Rain = 0
KPG1 222038Z 13007KT 35/05 A2984 RMK A01 T03530046  RH  015%=      5-min Rain = 0
KPG1 222039Z 17008KT 36/04 A2984 RMK A01 T03560044  RH  014%=      5-min Rain = 0
KPG1 222040Z 17007KT 36/05 A2984 RMK A01 T03590046  RH  014%=      5-min Rain = 0
KPG1 222041Z 17007KT 36/04 A2984 RMK A01 T03610043  RH  014%=      5-min Rain = 0
KPG1 222042Z 16006KT 36/04 A2984 RMK A01 T03590044  RH  014%=      5-min Rain = 0
KPG1 222043Z 14005KT 36/05 A2984 RMK A01 T03580045  RH  014%=      5-min Rain = 0
KPG1 222044Z 12005KT 36/04 A2984 RMK A01 T03590043  RH  014%=      5-min Rain = 0
KPG1 222045Z 12004KT 36/04 A2984 RMK A01 T03560044  RH  014%=      5-min Rain = 0
KPG1 222046Z 14005KT 36/04 A2984 RMK A01 T03550043  RH  014%=      5-min Rain = 0
KPG1 222047Z 15004KT 36/04 A2984 RMK A01 T03550043  RH  014%=      5-min Rain = 0
KPG1 222048Z 13005KT 36/04 A2983 RMK A01 T03560041  RH  014%=      5-min Rain = 0
KPG1 222049Z 14003KT 36/04 A2983 RMK A01 T03570042  RH  014%=      5-min Rain = 0
KPG1 222050Z 14005KT 36/04 A2983 RMK A01 T03580039  RH  014%=      5-min Rain = 0
KPG1 222051Z 13005KT 36/04 A2983 RMK A01 T03560038  RH  014%=      5-min Rain = 0
KPG1 222052Z 11006KT 35/04 A2983 RMK A01 T03540037  RH  014%=      5-min Rain = 0
KPG1 222053Z 10005KT 35/04 A2983 RMK A01 T03520037  RH  014%=      5-min Rain = 0
KPG1 222054Z 11005KT 35/04 A2983 RMK A01 T03520039  RH  014%=      5-min Rain = 0
KPG1 222055Z 10004KT 35/04 A2983 RMK A01 T03530038  RH  014%=      5-min Rain = 0
KPG1 222056Z 12003KT 35/04 A2983 RMK A01 T03530036  RH  014%=      5-min Rain = 0
KPG1 222057Z 13002KT 35/04 A2983 RMK A01 T03510037  RH  014%=      5-min Rain = 0
KPG1 222058Z 15004KT 35/04 A2983 RMK A01 T03530041  RH  014%=      5-min Rain = 0
KPG1 222059Z 14004KT 36/04 A2983 RMK A01 T03550039  RH  014%=      5-min Rain = 0
KPG1 222100Z 12005KT 36/04 A2983 RMK A01 T03560041  RH  014%=      5-min Rain = 0
KPG1 222101Z 14004KT 36/04 A2983 RMK A01 T03560039  RH  014%=      5-min Rain = 0
KPG1 222102Z 17002KT 36/04 A2983 RMK A01 T03550039  RH  014%=      5-min Rain = 0
KPG1 222103Z 07006KT 36/04 A2983 RMK A01 T03550043  RH  014%=      5-min Rain = 0
KPG1 222104Z 06008KT 36/05 A2983 RMK A01 T03570046  RH  015%=      5-min Rain = 0
KPG1 222105Z 07007KT 36/05 A2982 RMK A01 T03580047  RH  015%=      5-min Rain = 0
KPG1 222106Z 06006KT 36/05 A2982 RMK A01 T03570046  RH  015%=      5-min Rain = 0
KPG1 222107Z 05006KT 36/05 A2982 RMK A01 T03570048  RH  015%=      5-min Rain = 0
KPG1 222108Z 05008KT 36/05 A2982 RMK A01 T03590050  RH  015%=      5-min Rain = 0
KPG1 222109Z 06006KT 36/05 A2982 RMK A01 T03580045  RH  014%=      5-min Rain = 0
KPG1 222110Z 05008KT 36/05 A2982 RMK A01 T03560047  RH  015%=      5-min Rain = 0
KPG1 222111Z 05007KT 36/05 A2982 RMK A01 T03570047  RH  015%=      5-min Rain = 0
KPG1 222112Z 06007KT 36/05 A2982 RMK A01 T03570047  RH  015%=      5-min Rain = 0
KPG1 222113Z 06006KT 36/05 A2982 RMK A01 T03560046  RH  015%=      5-min Rain = 0
KPG1 222114Z 06009KT 36/05 A2982 RMK A01 T03580049  RH  015%=      5-min Rain = 0
KPG1 222115Z 05009KT 36/05 A2982 RMK A01 T03590046  RH  014%=      5-min Rain = 0
KPG1 222116Z 04005KT 36/05 A2982 RMK A01 T03580047  RH  015%=      5-min Rain = 0
KPG1 222117Z 03006KT 36/04 A2982 RMK A01 T03600044  RH  014%=      5-min Rain = 0
KPG1 222118Z 07004KT 36/04 A2982 RMK A01 T03590044  RH  014%=      5-min Rain = 0
KPG1 222119Z 09003KT 36/04 A2981 RMK A01 T03570043  RH  014%=      5-min Rain = 0
KPG1 222120Z 05005KT 36/05 A2981 RMK A01 T03570046  RH  015%=      5-min Rain = 0
KPG1 222121Z 04004KT 36/05 A2981 RMK A01 T03570047  RH  015%=      5-min Rain = 0
KPG1 222122Z 03004KT 36/05 A2981 RMK A01 T03590046  RH  014%=      5-min Rain = 0
KPG1 222123Z 07006KT 36/05 A2981 RMK A01 T03610045  RH  014%=      5-min Rain = 0
KPG1 222124Z 07005KT 36/04 A2981 RMK A01 T03590043  RH  014%=      5-min Rain = 0
KPG1 222125Z 08006KT 36/05 A2981 RMK A01 T03580047  RH  014%=      5-min Rain = 0
KPG1 222126Z 08005KT 36/05 A2981 RMK A01 T03590045  RH  014%=      5-min Rain = 0
KPG1 222127Z 06004KT 36/04 A2981 RMK A01 T03600044  RH  014%=      5-min Rain = 0
KPG1 222128Z 07004KT 36/04 A2981 RMK A01 T03600043  RH  014%=      5-min Rain = 0
KPG1 222129Z 07003KT 36/04 A2981 RMK A01 T03570042  RH  014%=      5-min Rain = 0
KPG1 222130Z 08002KT 36/05 A2981 RMK A01 T03570045  RH  014%=      5-min Rain = 0
KPG1 222131Z 03004KT 36/05 A2981 RMK A01 T03610045  RH  014%=      5-min Rain = 0
KPG1 222132Z 03005KT 36/04 A2981 RMK A01 T03620043  RH  014%=      5-min Rain = 0
KPG1 222133Z 01005KT 36/04 A2981 RMK A01 T03620043  RH  014%=      5-min Rain = 0
KPG1 222134Z 02006KT 36/05 A298 RMK A01 T03640046  RH  014%=      5-min Rain = 0
KPG1 222135Z 35006KT 36/04 A298 RMK A01 T03640043  RH  014%=      5-min Rain = 0
KPG1 222136Z 34004KT 36/04 A298 RMK A01 T03610042  RH  014%=      5-min Rain = 0
KPG1 222137Z 33002KT 36/04 A298 RMK A01 T03590042  RH  014%=      5-min Rain = 0
KPG1 222138Z 34005KT 36/04 A298 RMK A01 T03590042  RH  014%=      5-min Rain = 0
KPG1 222139Z 34005KT 36/04 A298 RMK A01 T03570040  RH  014%=      5-min Rain = 0
KPG1 222140Z 01004KT 36/04 A298 RMK A01 T03560044  RH  014%=      5-min Rain = 0
KPG1 222141Z 34004KT 36/04 A298 RMK A01 T03590044  RH  014%=      5-min Rain = 0
KPG1 222142Z 33005KT 36/04 A298 RMK A01 T03600044  RH  014%=      5-min Rain = 0
KPG1 222143Z 33004KT 36/04 A298 RMK A01 T03610044  RH  014%=      5-min Rain = 0
KPG1 222144Z 31003KT 36/04 A298 RMK A01 T03580041  RH  014%=      5-min Rain = 0
KPG1 222145Z 33003KT 36/04 A298 RMK A01 T03570044  RH  014%=      5-min Rain = 0
KPG1 222146Z 35004KT 36/05 A298 RMK A01 T03580045  RH  014%=      5-min Rain = 0
KPG1 222147Z 02008KT 36/05 A298 RMK A01 T03610046  RH  014%=      5-min Rain = 0
KPG1 222148Z 02004KT 36/04 A298 RMK A01 T03600044  RH  014%=      5-min Rain = 0
KPG1 222149Z 36003KT 36/04 A298 RMK A01 T03600043  RH  014%=      5-min Rain = 0
KPG1 222150Z 35004KT 36/04 A298 RMK A01 T03600044  RH  014%=      5-min Rain = 0
KPG1 222151Z 34002KT 36/05 A298 RMK A01 T03600045  RH  014%=      5-min Rain = 0
KPG1 222152Z 10004KT 36/05 A298 RMK A01 T03620049  RH  014%=      5-min Rain = 0
KPG1 222153Z 14004KT 36/05 A298 RMK A01 T03640048  RH  014%=      5-min Rain = 0
KPG1 222154Z 08005KT 37/05 A298 RMK A01 T03680052  RH  014%=      5-min Rain = 0
KPG1 222155Z 07004KT 37/05 A2979 RMK A01 T03700048  RH  014%=      5-min Rain = 0
KPG1 222156Z 06005KT 37/05 A2979 RMK A01 T03700049  RH  014%=      5-min Rain = 0
KPG1 222157Z 12007KT 37/05 A2979 RMK A01 T03700048  RH  014%=      5-min Rain = 0
KPG1 222158Z 13007KT 37/05 A2979 RMK A01 T03680046  RH  014%=      5-min Rain = 0
KPG1 222159Z 13006KT 37/04 A2979 RMK A01 T03660044  RH  014%=      5-min Rain = 0
KPG1 222200Z 09005KT 37/05 A2979 RMK A01 T03650045  RH  014%=      5-min Rain = 0
KPG1 222201Z 03001KT 36/04 A2979 RMK A01 T03610040  RH  014%=      5-min Rain = 0
KPG1 222202Z 10002KT 36/04 A2979 RMK A01 T03580040  RH  014%=      5-min Rain = 0
KPG1 222203Z 10006KT 36/05 A2979 RMK A01 T03590046  RH  014%=      5-min Rain = 0
KPG1 222204Z 07008KT 36/04 A2979 RMK A01 T03620044  RH  014%=      5-min Rain = 0
KPG1 222205Z 06008KT 36/04 A2979 RMK A01 T03620043  RH  014%=      5-min Rain = 0
KPG1 222206Z 04008KT 36/04 A2979 RMK A01 T03610043  RH  014%=      5-min Rain = 0
KPG1 222207Z 04005KT 36/04 A2979 RMK A01 T03610043  RH  014%=      5-min Rain = 0
KPG1 222208Z 02003KT 36/04 A2979 RMK A01 T03600043  RH  014%=      5-min Rain = 0
KPG1 222209Z 36001KT 36/05 A2978 RMK A01 T03610046  RH  014%=      5-min Rain = 0
KPG1 222210Z 08003KT 37/05 A2978 RMK A01 T03650046  RH  014%=      5-min Rain = 0
KPG1 222211Z 04005KT 37/04 A2978 RMK A01 T03650043  RH  014%=      5-min Rain = 0
KPG1 222212Z 01004KT 36/04 A2978 RMK A01 T03610040  RH  014%=      5-min Rain = 0
KPG1 222213Z 01004KT 36/04 A2978 RMK A01 T03570041  RH  014%=      5-min Rain = 0
KPG1 222214Z 01002KT 36/04 A2978 RMK A01 T03570043  RH  014%=      5-min Rain = 0
KPG1 222215Z 01002KT 36/04 A2978 RMK A01 T03600044  RH  014%=      5-min Rain = 0
KPG1 222216Z 05004KT 36/05 A2978 RMK A01 T03630048  RH  014%=      5-min Rain = 0
KPG1 222217Z 08004KT 37/05 A2978 RMK A01 T03650047  RH  014%=      5-min Rain = 0
KPG1 222218Z 08004KT 37/05 A2978 RMK A01 T03650048  RH  014%=      5-min Rain = 0
KPG1 222219Z 08005KT 37/05 A2978 RMK A01 T03650049  RH  014%=      5-min Rain = 0
KPG1 222220Z 07005KT 37/05 A2978 RMK A01 T03670050  RH  014%=      5-min Rain = 0
KPG1 222221Z 08004KT 37/05 A2978 RMK A01 T03690050  RH  014%=      5-min Rain = 0
KPG1 222222Z 08003KT 37/05 A2978 RMK A01 T03690051  RH  014%=      5-min Rain = 0
KPG1 222223Z 15006KT 37/05 A2978 RMK A01 T03700046  RH  014%=      5-min Rain = 0
KPG1 222224Z 13005KT 37/04 A2978 RMK A01 T03680042  RH  013%=      5-min Rain = 0
KPG1 222225Z 12004KT 37/04 A2978 RMK A01 T03650043  RH  014%=      5-min Rain = 0
KPG1 222226Z 16003KT 36/04 A2978 RMK A01 T03630043  RH  014%=      5-min Rain = 0
KPG1 222227Z 19007KT 36/04 A2978 RMK A01 T03640044  RH  014%=      5-min Rain = 0
KPG1 222228Z 21008KT 37/04 A2977 RMK A01 T03650043  RH  014%=      5-min Rain = 0
KPG1 222229Z 21007KT 37/04 A2977 RMK A01 T03650043  RH  014%=      5-min Rain = 0
KPG1 222230Z 20005KT 37/04 A2977 RMK A01 T03660044  RH  014%=      5-min Rain = 0
KPG1 222231Z 19005KT 37/04 A2977 RMK A01 T03670044  RH  013%=      5-min Rain = 0
KPG1 222232Z 17005KT 37/05 A2977 RMK A01 T03680045  RH  014%=      5-min Rain = 0
KPG1 222233Z 15004KT 37/05 A2977 RMK A01 T03690046  RH  014%=      5-min Rain = 0
KPG1 222234Z 16001KT 37/05 A2977 RMK A01 T03680046  RH  014%=      5-min Rain = 0
KPG1 222235Z 22001KT 37/05 A2977 RMK A01 T03690046  RH  014%=      5-min Rain = 0
KPG1 222236Z 18004KT 37/05 A2977 RMK A01 T03700045  RH  013%=      5-min Rain = 0
KPG1 222237Z 22002KT 37/04 A2977 RMK A01 T03690044  RH  013%=      5-min Rain = 0
KPG1 222238Z 18004KT 37/04 A2977 RMK A01 T03660044  RH  014%=      5-min Rain = 0
KPG1 222239Z 18008KT 37/05 A2977 RMK A01 T03680049  RH  014%=      5-min Rain = 0
KPG1 222240Z 20008KT 37/05 A2977 RMK A01 T03700046  RH  014%=      5-min Rain = 0
KPG1 222241Z 19005KT 37/05 A2977 RMK A01 T03680045  RH  014%=      5-min Rain = 0
KPG1 222242Z 17004KT 37/05 A2977 RMK A01 T03670046  RH  014%=      5-min Rain = 0
KPG1 222243Z 16003KT 37/05 A2977 RMK A01 T03670046  RH  014%=      5-min Rain = 0
KPG1 222244Z 14004KT 37/05 A2977 RMK A01 T03680048  RH  014%=      5-min Rain = 0
KPG1 222245Z 18005KT 37/05 A2977 RMK A01 T03690049  RH  014%=      5-min Rain = 0
KPG1 222246Z 17005KT 37/05 A2977 RMK A01 T03710048  RH  014%=      5-min Rain = 0
KPG1 222247Z 19003KT 37/05 A2976 RMK A01 T03720048  RH  013%=      5-min Rain = 0
KPG1 222248Z 23003KT 38/05 A2976 RMK A01 T03750046  RH  013%=      5-min Rain = 0
KPG1 222249Z 25002KT 38/05 A2976 RMK A01 T03760045  RH  013%=      5-min Rain = 0
KPG1 222250Z 28003KT 37/04 A2976 RMK A01 T03740044  RH  013%=      5-min Rain = 0
KPG1 222251Z 26002KT 37/04 A2976 RMK A01 T03710042  RH  013%=      5-min Rain = 0
KPG1 222252Z 27004KT 37/04 A2976 RMK A01 T03710044  RH  013%=      5-min Rain = 0
KPG1 222253Z 28005KT 37/04 A2976 RMK A01 T03720042  RH  013%=      5-min Rain = 0
KPG1 222254Z 28003KT 37/04 A2976 RMK A01 T03700038  RH  013%=      5-min Rain = 0
KPG1 222255Z 28004KT 37/04 A2976 RMK A01 T03680042  RH  013%=      5-min Rain = 0
KPG1 222256Z 28006KT 37/04 A2976 RMK A01 T03700041  RH  013%=      5-min Rain = 0
KPG1 222257Z 27005KT 37/04 A2976 RMK A01 T03690038  RH  013%=      5-min Rain = 0
KPG1 222258Z 27004KT 37/04 A2976 RMK A01 T03660038  RH  013%=      5-min Rain = 0
KPG1 222259Z 27004KT 37/04 A2976 RMK A01 T03650039  RH  013%=      5-min Rain = 0
KPG1 222300Z 25003KT 37/04 A2976 RMK A01 T03650040  RH  013%=      5-min Rain = 0
KPG1 222301Z 31004KT 37/04 A2976 RMK A01 T03670040  RH  013%=      5-min Rain = 0
KPG1 222302Z 32004KT 37/04 A2976 RMK A01 T03670039  RH  013%=      5-min Rain = 0
KPG1 222303Z 36002KT 37/04 A2975 RMK A01 T03660039  RH  013%=      5-min Rain = 0
KPG1 222304Z 25002KT 37/04 A2975 RMK A01 T03650039  RH  013%=      5-min Rain = 0
KPG1 222305Z 27004KT 37/04 A2975 RMK A01 T03660042  RH  013%=      5-min Rain = 0
KPG1 222306Z 18003KT 37/05 A2975 RMK A01 T03680045  RH  014%=      5-min Rain = 0
KPG1 222307Z 18003KT 37/05 A2975 RMK A01 T03710048  RH  014%=      5-min Rain = 0
KPG1 222308Z 18004KT 37/05 A2975 RMK A01 T03730046  RH  013%=      5-min Rain = 0
KPG1 222309Z 16007G12KT 37/05 A2975 RMK A01 T03710046  RH  013%=      5-min Rain = 0
KPG1 222310Z 16008KT 37/05 A2975 RMK A01 T03700049  RH  014%=      5-min Rain = 0
KPG1 222311Z 15007KT 37/05 A2975 RMK A01 T03710049  RH  014%=      5-min Rain = 0
KPG1 222312Z 11004KT 37/05 A2975 RMK A01 T03690047  RH  014%=      5-min Rain = 0
KPG1 222313Z 05005KT 37/04 A2975 RMK A01 T03670042  RH  013%=      5-min Rain = 0
KPG1 222314Z 04006KT 37/04 A2975 RMK A01 T03660042  RH  013%=      5-min Rain = 0
KPG1 222315Z 05008KT 37/04 A2975 RMK A01 T03660044  RH  014%=      5-min Rain = 0
KPG1 222316Z 05007KT 36/05 A2975 RMK A01 T03640047  RH  014%=      5-min Rain = 0
KPG1 222317Z 06008KT 36/05 A2975 RMK A01 T03630049  RH  014%=      5-min Rain = 0
KPG1 222318Z 05005KT 36/05 A2975 RMK A01 T03620048  RH  014%=      5-min Rain = 0
KPG1 222319Z 05004KT 36/05 A2975 RMK A01 T03600047  RH  014%=      5-min Rain = 0
KPG1 222320Z 04003KT 36/05 A2975 RMK A01 T03600048  RH  014%=      5-min Rain = 0
KPG1 222321Z 00003KT 36/05 A2975 RMK A01 T03610048  RH  014%=      5-min Rain = 0
KPG1 222322Z 32002KT 36/05 A2975 RMK A01 T03610049  RH  014%=      5-min Rain = 0
KPG1 222323Z 32003KT 36/05 A2975 RMK A01 T03620050  RH  014%=      5-min Rain = 0
KPG1 222324Z 31003KT 36/05 A2975 RMK A01 T03640049  RH  014%=      5-min Rain = 0
KPG1 222325Z 26003KT 36/05 A2974 RMK A01 T03640051  RH  014%=      5-min Rain = 0
KPG1 222326Z 21004KT 37/05 A2974 RMK A01 T03660051  RH  014%=      5-min Rain = 0
KPG1 222327Z 20005KT 37/05 A2974 RMK A01 T03660048  RH  014%=      5-min Rain = 0
KPG1 222328Z 18003KT 37/05 A2975 RMK A01 T03660046  RH  014%=      5-min Rain = 0
KPG1 222329Z 19002KT 37/05 A2975 RMK A01 T03670049  RH  014%=      5-min Rain = 0
KPG1 222330Z 13004KT 37/05 A2975 RMK A01 T03700050  RH  014%=      5-min Rain = 0
KPG1 222331Z 15006KT 37/05 A2974 RMK A01 T03710047  RH  014%=      5-min Rain = 0
KPG1 222332Z 16005KT 37/05 A2974 RMK A01 T03690046  RH  014%=      5-min Rain = 0
KPG1 222333Z 15005KT 37/05 A2974 RMK A01 T03660045  RH  014%=      5-min Rain = 0
KPG1 222334Z 16006KT 37/05 A2974 RMK A01 T03650046  RH  014%=      5-min Rain = 0
KPG1 222335Z 15003KT 36/04 A2974 RMK A01 T03640044  RH  014%=      5-min Rain = 0
KPG1 222336Z 18001KT 36/05 A2974 RMK A01 T03630045  RH  014%=      5-min Rain = 0
KPG1 222337Z 27000KT 37/05 A2974 RMK A01 T03650046  RH  014%=      5-min Rain = 0
KPG1 222338Z 33000KT 37/05 A2974 RMK A01 T03680046  RH  014%=      5-min Rain = 0
KPG1 222339Z 11002G7KT 37/05 A2974 RMK A01 T03710047  RH  014%=      5-min Rain = 0
KPG1 222340Z 13006KT 37/05 A2974 RMK A01 T03700046  RH  013%=      5-min Rain = 0
KPG1 222341Z 10007KT 37/05 A2974 RMK A01 T03680045  RH  014%=      5-min Rain = 0
KPG1 222342Z 09007KT 37/05 A2974 RMK A01 T03650047  RH  014%=      5-min Rain = 0
KPG1 222343Z 09005KT 36/05 A2974 RMK A01 T03620045  RH  014%=      5-min Rain = 0
KPG1 222344Z 09003KT 36/05 A2974 RMK A01 T03610045  RH  014%=      5-min Rain = 0
KPG1 222345Z 11003KT 36/05 A2974 RMK A01 T03600045  RH  014%=      5-min Rain = 0
KPG1 222346Z 15005KT 36/05 A2974 RMK A01 T03610047  RH  014%=      5-min Rain = 0
KPG1 222347Z 16005KT 36/04 A2974 RMK A01 T03620044  RH  014%=      5-min Rain = 0
KPG1 222348Z 15005KT 36/04 A2974 RMK A01 T03620044  RH  014%=      5-min Rain = 0
KPG1 222349Z 15007KT 36/05 A2974 RMK A01 T03630048  RH  014%=      5-min Rain = 0
KPG1 222350Z 15008KT 37/05 A2974 RMK A01 T03650048  RH  014%=      5-min Rain = 0
KPG1 222351Z 13009KT 37/05 A2974 RMK A01 T03650045  RH  014%=      5-min Rain = 0
KPG1 222352Z 15008KT 36/04 A2974 RMK A01 T03620044  RH  014%=      5-min Rain = 0
KPG1 222353Z 18008KT 36/05 A2974 RMK A01 T03620045  RH  014%=      5-min Rain = 0
KPG1 222354Z 16006KT 36/05 A2974 RMK A01 T03630046  RH  014%=      5-min Rain = 0
KPG1 222355Z 16003KT 36/05 A2974 RMK A01 T03640045  RH  014%=      5-min Rain = 0
KPG1 222356Z 14005KT 36/05 A2974 RMK A01 T03640046  RH  014%=      5-min Rain = 0
KPG1 222357Z 14004KT 36/04 A2974 RMK A01 T03640044  RH  014%=      5-min Rain = 0
KPG1 222358Z 12004KT 36/05 A2974 RMK A01 T03630045  RH  014%=      5-min Rain = 0
KPG1 222359Z 11003KT 36/04 A2974 RMK A01 T03630044  RH  014%=      5-min Rain = 0
KPG1 230000Z 11001KT 36/04 A2974 RMK A01 T03620042  RH  014%=      5-min Rain = 0
KPG1 230001Z 11003KT 36/04 A2974 RMK A01 T03620042  RH  014%=      5-min Rain = 0
KPG1 230002Z 10004KT 36/04 A2974 RMK A01 T03620044  RH  014%=      5-min Rain = 0
KPG1 230003Z 10004KT 36/05 A2974 RMK A01 T03610049  RH  014%=      5-min Rain = 0
KPG1 230004Z 15004KT 36/05 A2974 RMK A01 T03620047  RH  014%=      5-min Rain = 0
KPG1 230005Z 16004KT 36/04 A2974 RMK A01 T03630043  RH  014%=      5-min Rain = 0
KPG1 230006Z 13007KT 36/04 A2974 RMK A01 T03620044  RH  014%=      5-min Rain = 0
KPG1 230007Z 13005KT 36/04 A2974 RMK A01 T03630043  RH  014%=      5-min Rain = 0
KPG1 230008Z 14006KT 36/04 A2974 RMK A01 T03630043  RH  014%=      5-min Rain = 0
KPG1 230009Z 13006KT 36/04 A2975 RMK A01 T03620042  RH  014%=      5-min Rain = 0
KPG1 230010Z 11004KT 36/04 A2975 RMK A01 T03600044  RH  014%=      5-min Rain = 0
KPG1 230011Z 07003KT 36/04 A2975 RMK A01 T03590043  RH  014%=      5-min Rain = 0
KPG1 230012Z 10002KT 36/04 A2974 RMK A01 T03580044  RH  014%=      5-min Rain = 0
KPG1 230013Z 14004KT 36/05 A2975 RMK A01 T03590046  RH  014%=      5-min Rain = 0
KPG1 230014Z 14007KT 36/05 A2975 RMK A01 T03600046  RH  014%=      5-min Rain = 0
KPG1 230015Z 14007KT 36/05 A2975 RMK A01 T03600049  RH  015%=      5-min Rain = 0
KPG1 230016Z 12007KT 36/05 A2975 RMK A01 T03600050  RH  015%=      5-min Rain = 0
KPG1 230017Z 11005KT 36/05 A2975 RMK A01 T03600050  RH  015%=      5-min Rain = 0
KPG1 230018Z 09005KT 36/05 A2975 RMK A01 T03600051  RH  015%=      5-min Rain = 0
KPG1 230019Z 11004KT 36/05 A2975 RMK A01 T03610053  RH  015%=      5-min Rain = 0
KPG1 230020Z 12004KT 36/05 A2975 RMK A01 T03610054  RH  015%=      5-min Rain = 0
KPG1 230021Z 15007KT 36/05 A2975 RMK A01 T03630054  RH  015%=      5-min Rain = 0
KPG1 230022Z 16008KT 36/05 A2975 RMK A01 T03620053  RH  015%=      5-min Rain = 0
KPG1 230023Z 14008KT 36/06 A2975 RMK A01 T03610056  RH  015%=      5-min Rain = 0
KPG1 230024Z 08007KT 36/06 A2975 RMK A01 T03610060  RH  016%=      5-min Rain = 0
KPG1 230025Z 07004KT 36/06 A2975 RMK A01 T03610059  RH  016%=      5-min Rain = 0
KPG1 230026Z 13004KT 36/06 A2975 RMK A01 T03600060  RH  016%=      5-min Rain = 0
KPG1 230027Z 07004KT 36/06 A2975 RMK A01 T03600062  RH  016%=      5-min Rain = 0
KPG1 230028Z 12006KT 36/06 A2975 RMK A01 T03600063  RH  016%=      5-min Rain = 0
KPG1 230029Z 11004KT 36/06 A2975 RMK A01 T03600063  RH  016%=      5-min Rain = 0
KPG1 230030Z 10007KT 36/06 A2975 RMK A01 T03600063  RH  016%=      5-min Rain = 0
KPG1 230031Z 10006KT 36/06 A2975 RMK A01 T03590063  RH  016%=      5-min Rain = 0
KPG1 230032Z 11007KT 36/06 A2975 RMK A01 T03580064  RH  016%=      5-min Rain = 0
KPG1 230033Z 10008KT 36/07 A2975 RMK A01 T03580065  RH  016%=      5-min Rain = 0
KPG1 230034Z 13004KT 36/07 A2975 RMK A01 T03570065  RH  017%=      5-min Rain = 0
KPG1 230035Z 12010G16KT 36/07 A2975 RMK A01 T03570065  RH  017%=      5-min Rain = 0
KPG1 230036Z 11012G18KT 36/07 A2975 RMK A01 T03570067  RH  017%=      5-min Rain = 0
KPG1 230037Z 11012G17KT 36/09 A2975 RMK A01 T03550087  RH  019%=      5-min Rain = 0
KPG1 230038Z 10010KT 35/09 A2975 RMK A01 T03520091  RH  020%=      5-min Rain = 0
KPG1 230039Z 12012KT 35/11 A2975 RMK A01 T03510109  RH  023%=      5-min Rain = 0
KPG1 230040Z 11009G14KT 35/12 A2975 RMK A01 T03480115  RH  024%=      5-min Rain = 0
KPG1 230041Z 12014G20KT 35/12 A2975 RMK A01 T03460118  RH  025%=      5-min Rain = 0
KPG1 230042Z 11011KT 34/12 A2975 RMK A01 T03430117  RH  025%=      5-min Rain = 0
KPG1 230043Z 12007KT 34/12 A2975 RMK A01 T03430119  RH  026%=      5-min Rain = 0
KPG1 230044Z 13012KT 34/12 A2975 RMK A01 T03420118  RH  026%=      5-min Rain = 0
KPG1 230045Z 13018KT 34/12 A2975 RMK A01 T03420117  RH  026%=      5-min Rain = 0
KPG1 230046Z 12016G21KT 34/12 A2975 RMK A01 T03420116  RH  025%=      5-min Rain = 0
KPG1 230047Z 13013KT 34/12 A2975 RMK A01 T03410117  RH  026%=      5-min Rain = 0
KPG1 230048Z 13011KT 34/12 A2975 RMK A01 T03400117  RH  026%=      5-min Rain = 0
KPG1 230049Z 13015KT 34/12 A2975 RMK A01 T03390117  RH  026%=      5-min Rain = 0
KPG1 230050Z 12012KT 34/12 A2975 RMK A01 T03390118  RH  026%=      5-min Rain = 0
KPG1 230051Z 13014G19KT 34/12 A2975 RMK A01 T03380118  RH  026%=      5-min Rain = 0
KPG1 230052Z 13015G20KT 34/12 A2975 RMK A01 T03370118  RH  026%=      5-min Rain = 0
KPG1 230053Z 12012KT 34/12 A2975 RMK A01 T03360118  RH  027%=      5-min Rain = 0
KPG1 230054Z 12012KT 34/12 A2975 RMK A01 T03360119  RH  027%=      5-min Rain = 0
KPG1 230055Z 12013KT 34/12 A2975 RMK A01 T03360120  RH  027%=      5-min Rain = 0
KPG1 230056Z 11011G16KT 34/12 A2975 RMK A01 T03350120  RH  027%=      5-min Rain = 0
KPG1 230057Z 12014KT 34/12 A2975 RMK A01 T03350120  RH  027%=      5-min Rain = 0
KPG1 230058Z 11013G19KT 34/12 A2975 RMK A01 T03350119  RH  027%=      5-min Rain = 0
KPG1 230059Z 10010KT 33/12 A2975 RMK A01 T03340119  RH  027%=      5-min Rain = 0
KPG1 230100Z 11009KT 33/12 A2975 RMK A01 T03330118  RH  027%=      5-min Rain = 0
KPG1 230101Z 11014KT 33/12 A2975 RMK A01 T03330118  RH  027%=      5-min Rain = 0
KPG1 230102Z 09015KT 33/12 A2976 RMK A01 T03320116  RH  027%=      5-min Rain = 0
KPG1 230103Z 10012KT 33/11 A2976 RMK A01 T03310114  RH  027%=      5-min Rain = 0
KPG1 230104Z 11012KT 33/11 A2976 RMK A01 T03310112  RH  026%=      5-min Rain = 0
KPG1 230105Z 11013KT 33/11 A2975 RMK A01 T03300110  RH  026%=      5-min Rain = 0
KPG1 230106Z 11014G19KT 33/11 A2975 RMK A01 T03300110  RH  026%=      5-min Rain = 0
KPG1 230107Z 10013G20KT 33/11 A2975 RMK A01 T03300109  RH  026%=      5-min Rain = 0
KPG1 230108Z 11013G20KT 33/11 A2975 RMK A01 T03290108  RH  026%=      5-min Rain = 0
KPG1 230109Z 11017G22KT 33/11 A2975 RMK A01 T03290107  RH  026%=      5-min Rain = 0
KPG1 230110Z 11012KT 33/11 A2975 RMK A01 T03290105  RH  025%=      5-min Rain = 0
KPG1 230111Z 11015KT 33/10 A2975 RMK A01 T03280104  RH  025%=      5-min Rain = 0
KPG1 230112Z 11014G20KT 33/10 A2975 RMK A01 T03280104  RH  025%=      5-min Rain = 0
KPG1 230113Z 11015KT 33/10 A2975 RMK A01 T03280103  RH  025%=      5-min Rain = 0
KPG1 230114Z 10016KT 33/10 A2975 RMK A01 T03280103  RH  025%=      5-min Rain = 0
KPG1 230115Z 11017G24KT 33/10 A2975 RMK A01 T03270103  RH  025%=      5-min Rain = 0
KPG1 230116Z 12018G25KT 33/10 A2975 RMK A01 T03260103  RH  025%=      5-min Rain = 0
KPG1 230117Z 11018G23KT 33/10 A2975 RMK A01 T03260103  RH  025%=      5-min Rain = 0
KPG1 230118Z 11022G27KT 33/10 A2975 RMK A01 T03250103  RH  025%=      5-min Rain = 0
KPG1 230119Z 11021G27KT 33/10 A2975 RMK A01 T03250103  RH  026%=      5-min Rain = 0
KPG1 230120Z 11018KT 32/10 A2975 RMK A01 T03240103  RH  026%=      5-min Rain = 0
KPG1 230121Z 11014G21KT 32/10 A2975 RMK A01 T03240104  RH  026%=      5-min Rain = 0
KPG1 230122Z 11018G24KT 32/10 A2975 RMK A01 T03240103  RH  026%=      5-min Rain = 0
KPG1 230123Z 11018G25KT 32/10 A2975 RMK A01 T03240102  RH  026%=      5-min Rain = 0
KPG1 230124Z 11018G23KT 32/10 A2975 RMK A01 T03230102  RH  026%=      5-min Rain = 0
KPG1 230125Z 11014G25KT 32/10 A2975 RMK A01 T03220103  RH  026%=      5-min Rain = 0
KPG1 230126Z 12018KT 32/10 A2975 RMK A01 T03220103  RH  026%=      5-min Rain = 0
KPG1 230127Z 12016G24KT 32/10 A2975 RMK A01 T03220102  RH  026%=      5-min Rain = 0
KPG1 230128Z 12020KT 32/10 A2975 RMK A01 T03210102  RH  026%=      5-min Rain = 0
KPG1 230129Z 12018G24KT 32/10 A2975 RMK A01 T03210102  RH  026%=      5-min Rain = 0
KPG1 230130Z 12019G25KT 32/10 A2975 RMK A01 T03200103  RH  026%=      5-min Rain = 0
KPG1 230131Z 12014G19KT 32/10 A2975 RMK A01 T03200103  RH  026%=      5-min Rain = 0
KPG1 230132Z 11016G21KT 32/10 A2975 RMK A01 T03200103  RH  026%=      5-min Rain = 0
KPG1 230133Z 11016KT 32/10 A2975 RMK A01 T03190103  RH  026%=      5-min Rain = 0
KPG1 230134Z 11016KT 32/10 A2975 RMK A01 T03190103  RH  026%=      5-min Rain = 0
KPG1 230135Z 11016G21KT 32/10 A2975 RMK A01 T03190103  RH  027%=      5-min Rain = 0
KPG1 230136Z 11017KT 32/10 A2975 RMK A01 T03180103  RH  027%=      5-min Rain = 0
KPG1 230137Z 11022G28KT 32/11 A2975 RMK A01 T03170105  RH  027%=      5-min Rain = 0
KPG1 230138Z 10019KT 32/11 A2975 RMK A01 T03160107  RH  028%=      5-min Rain = 0
KPG1 230139Z 10018G25KT 32/11 A2975 RMK A01 T03160107  RH  028%=      5-min Rain = 0
KPG1 230140Z 11019G25KT 32/11 A2975 RMK A01 T03150107  RH  028%=      5-min Rain = 0
KPG1 230141Z 10019G25KT 32/11 A2975 RMK A01 T03150108  RH  028%=      5-min Rain = 0
KPG1 230142Z 10017KT 31/11 A2975 RMK A01 T03140109  RH  028%=      5-min Rain = 0
KPG1 230143Z 10017G22KT 31/11 A2975 RMK A01 T03140110  RH  029%=      5-min Rain = 0
KPG1 230144Z 10018G23KT 31/11 A2975 RMK A01 T03130111  RH  029%=      5-min Rain = 0
KPG1 230145Z 10019KT 31/11 A2975 RMK A01 T03130111  RH  029%=      5-min Rain = 0
KPG1 230146Z 11019KT 31/11 A2975 RMK A01 T03130110  RH  029%=      5-min Rain = 0
KPG1 230147Z 10016G22KT 31/11 A2975 RMK A01 T03120110  RH  029%=      5-min Rain = 0
KPG1 230148Z 11018G23KT 31/11 A2975 RMK A01 T03120111  RH  029%=      5-min Rain = 0
KPG1 230149Z 10018KT 31/11 A2976 RMK A01 T03120112  RH  029%=      5-min Rain = 0
KPG1 230150Z 11017KT 31/11 A2976 RMK A01 T03110112  RH  029%=      5-min Rain = 0
KPG1 230151Z 11017G22KT 31/11 A2976 RMK A01 T03110112  RH  029%=      5-min Rain = 0
KPG1 230152Z 11013G19KT 31/11 A2976 RMK A01 T03110112  RH  029%=      5-min Rain = 0
KPG1 230153Z 11015KT 31/11 A2976 RMK A01 T03100112  RH  030%=      5-min Rain = 0
KPG1 230154Z 09014G21KT 31/11 A2976 RMK A01 T03100112  RH  030%=      5-min Rain = 0
KPG1 230155Z 10013KT 31/11 A2976 RMK A01 T03100113  RH  030%=      5-min Rain = 0
KPG1 230156Z 10014G20KT 31/11 A2976 RMK A01 T03100113  RH  030%=      5-min Rain = 0
KPG1 230157Z 10017G23KT 31/11 A2976 RMK A01 T03100114  RH  030%=      5-min Rain = 0
KPG1 230158Z 10015KT 31/11 A2976 RMK A01 T03100114  RH  030%=      5-min Rain = 0
KPG1 230159Z 09015KT 31/12 A2977 RMK A01 T03090115  RH  030%=      5-min Rain = 0
KPG1 230200Z 10018KT 31/12 A2977 RMK A01 T03090116  RH  030%=      5-min Rain = 0
KPG1 230201Z 10016KT 31/12 A2977 RMK A01 T03090116  RH  031%=      5-min Rain = 0
KPG1 230202Z 10016KT 31/12 A2977 RMK A01 T03090117  RH  031%=      5-min Rain = 0
KPG1 230203Z 10015G20KT 31/12 A2977 RMK A01 T03080117  RH  031%=      5-min Rain = 0
KPG1 230204Z 09016KT 31/12 A2977 RMK A01 T03080117  RH  031%=      5-min Rain = 0
KPG1 230205Z 09012KT 31/12 A2977 RMK A01 T03090118  RH  031%=      5-min Rain = 0
KPG1 230206Z 10011G17KT 31/12 A2977 RMK A01 T03080118  RH  031%=      5-min Rain = 0
KPG1 230207Z 10011KT 31/12 A2977 RMK A01 T03080118  RH  031%=      5-min Rain = 0
KPG1 230208Z 10014KT 31/12 A2978 RMK A01 T03080118  RH  031%=      5-min Rain = 0
KPG1 230209Z 12014KT 31/12 A2977 RMK A01 T03080118  RH  031%=      5-min Rain = 0
KPG1 230210Z 11014G21KT 31/12 A2977 RMK A01 T03080119  RH  031%=      5-min Rain = 0
KPG1 230211Z 11009G14KT 31/12 A2977 RMK A01 T03070118  RH  031%=      5-min Rain = 0
KPG1 230212Z 11011KT 31/12 A2977 RMK A01 T03070118  RH  031%=      5-min Rain = 0
KPG1 230213Z 09008KT 31/12 A2978 RMK A01 T03070118  RH  031%=      5-min Rain = 0
KPG1 230214Z 07011KT 31/12 A2978 RMK A01 T03070118  RH  031%=      5-min Rain = 0
KPG1 230215Z 08012KT 31/12 A2978 RMK A01 T03060118  RH  032%=      5-min Rain = 0
KPG1 230216Z 10012KT 31/12 A2978 RMK A01 T03050118  RH  032%=      5-min Rain = 0
KPG1 230217Z 09011KT 31/12 A2977 RMK A01 T03050118  RH  032%=      5-min Rain = 0
KPG1 230218Z 10012G17KT 31/12 A2978 RMK A01 T03050118  RH  032%=      5-min Rain = 0
KPG1 230219Z 10013KT 31/12 A2977 RMK A01 T03050119  RH  032%=      5-min Rain = 0
KPG1 230220Z 09012KT 31/12 A2978 RMK A01 T03050119  RH  032%=      5-min Rain = 0
KPG1 230221Z 09014KT 30/12 A2977 RMK A01 T03040119  RH  032%=      5-min Rain = 0
KPG1 230222Z 09015KT 30/12 A2977 RMK A01 T03040120  RH  032%=      5-min Rain = 0
KPG1 230223Z 09015KT 30/12 A2978 RMK A01 T03040119  RH  032%=      5-min Rain = 0
KPG1 230224Z 08013KT 30/12 A2978 RMK A01 T03040119  RH  032%=      5-min Rain = 0
KPG1 230225Z 08014KT 30/12 A2978 RMK A01 T03040120  RH  032%=      5-min Rain = 0
KPG1 230226Z 09014KT 30/12 A2978 RMK A01 T03030120  RH  032%=      5-min Rain = 0
KPG1 230227Z 10011KT 30/12 A2978 RMK A01 T03030120  RH  033%=      5-min Rain = 0
KPG1 230228Z 09014KT 30/12 A2978 RMK A01 T03020121  RH  033%=      5-min Rain = 0
KPG1 230229Z 10014G21KT 30/12 A2978 RMK A01 T03020121  RH  033%=      5-min Rain = 0
KPG1 230230Z 08013KT 30/12 A2978 RMK A01 T03030121  RH  033%=      5-min Rain = 0
KPG1 230231Z 09013KT 30/12 A2978 RMK A01 T03030122  RH  033%=      5-min Rain = 0
KPG1 230232Z 09015KT 30/12 A2978 RMK A01 T03030123  RH  033%=      5-min Rain = 0
KPG1 230233Z 08015KT 30/12 A2978 RMK A01 T03030123  RH  033%=      5-min Rain = 0
KPG1 230234Z 08014KT 30/12 A2978 RMK A01 T03020123  RH  033%=      5-min Rain = 0
KPG1 230235Z 08012KT 30/12 A2978 RMK A01 T03030123  RH  033%=      5-min Rain = 0
KPG1 230236Z 08012KT 30/12 A2978 RMK A01 T03030124  RH  033%=      5-min Rain = 0
KPG1 230237Z 09012KT 30/13 A2978 RMK A01 T03020125  RH  034%=      5-min Rain = 0
KPG1 230238Z 09012KT 30/13 A2978 RMK A01 T03020125  RH  034%=      5-min Rain = 0
KPG1 230239Z 09011KT 30/13 A2979 RMK A01 T03020126  RH  034%=      5-min Rain = 0
KPG1 230240Z 08011KT 30/13 A2979 RMK A01 T03020126  RH  034%=      5-min Rain = 0
KPG1 230241Z 08010KT 30/13 A2979 RMK A01 T03010127  RH  034%=      5-min Rain = 0
KPG1 230242Z 09009KT 30/13 A2979 RMK A01 T03010127  RH  034%=      5-min Rain = 0
KPG1 230243Z 09007KT 30/13 A2979 RMK A01 T03010127  RH  034%=      5-min Rain = 0
KPG1 230244Z 09007KT 30/13 A2979 RMK A01 T03000128  RH  035%=      5-min Rain = 0
KPG1 230245Z 06004KT 30/13 A2979 RMK A01 T03000126  RH  034%=      5-min Rain = 0
KPG1 230246Z 04006KT 30/13 A2979 RMK A01 T02980125  RH  035%=      5-min Rain = 0
KPG1 230247Z 05008KT 30/12 A2979 RMK A01 T02960124  RH  035%=      5-min Rain = 0
KPG1 230248Z 05007KT 30/13 A2979 RMK A01 T02950125  RH  035%=      5-min Rain = 0
KPG1 230249Z 04008KT 30/13 A2979 RMK A01 T02950125  RH  035%=      5-min Rain = 0
KPG1 230250Z 03006KT 29/13 A2979 RMK A01 T02940125  RH  035%=      5-min Rain = 0
KPG1 230251Z 03006KT 29/13 A2979 RMK A01 T02940125  RH  035%=      5-min Rain = 0
KPG1 230252Z 04008KT 29/13 A2979 RMK A01 T02930125  RH  036%=      5-min Rain = 0
KPG1 230253Z 04008KT 29/13 A2979 RMK A01 T02920126  RH  036%=      5-min Rain = 0
KPG1 230254Z 06008KT 29/13 A2979 RMK A01 T02920128  RH  036%=      5-min Rain = 0
KPG1 230255Z 05007KT 29/13 A2979 RMK A01 T02920128  RH  036%=      5-min Rain = 0
KPG1 230256Z 06007KT 29/13 A2979 RMK A01 T02920128  RH  036%=      5-min Rain = 0
KPG1 230257Z 05007KT 29/13 A2979 RMK A01 T02930130  RH  037%=      5-min Rain = 0
KPG1 230258Z 05008KT 29/13 A2979 RMK A01 T02930129  RH  037%=      5-min Rain = 0
KPG1 230259Z 05011KT 29/13 A2979 RMK A01 T02930130  RH  037%=      5-min Rain = 0
KPG1 230300Z 05009KT 29/13 A2979 RMK A01 T02920130  RH  037%=      5-min Rain = 0
KPG1 230301Z 04010KT 29/13 A2979 RMK A01 T02920130  RH  037%=      5-min Rain = 0
KPG1 230302Z 04010KT 29/13 A2979 RMK A01 T02920130  RH  037%=      5-min Rain = 0
KPG1 230303Z 04010KT 29/13 A2979 RMK A01 T02920130  RH  037%=      5-min Rain = 0
KPG1 230304Z 05011KT 29/13 A2979 RMK A01 T02920131  RH  037%=      5-min Rain = 0
KPG1 230305Z 05012KT 29/13 A298 RMK A01 T02920131  RH  037%=      5-min Rain = 0
KPG1 230306Z 05011KT 29/13 A298 RMK A01 T02920132  RH  037%=      5-min Rain = 0
KPG1 230307Z 05010KT 29/13 A298 RMK A01 T02920131  RH  037%=      5-min Rain = 0
KPG1 230308Z 04009KT 29/13 A298 RMK A01 T02920131  RH  037%=      5-min Rain = 0
KPG1 230309Z 04010KT 29/13 A298 RMK A01 T02920131  RH  037%=      5-min Rain = 0
KPG1 230310Z 04011KT 29/13 A298 RMK A01 T02910131  RH  037%=      5-min Rain = 0
KPG1 230311Z 04010KT 29/13 A298 RMK A01 T02910130  RH  037%=      5-min Rain = 0
KPG1 230312Z 03009KT 29/13 A298 RMK A01 T02910130  RH  037%=      5-min Rain = 0
KPG1 230313Z 04009KT 29/13 A298 RMK A01 T02910130  RH  037%=      5-min Rain = 0
KPG1 230314Z 05008KT 29/13 A2981 RMK A01 T02900129  RH  037%=      5-min Rain = 0
KPG1 230315Z 03009KT 29/13 A2981 RMK A01 T02900129  RH  037%=      5-min Rain = 0
KPG1 230316Z 03011KT 29/13 A2981 RMK A01 T02900129  RH  037%=      5-min Rain = 0
KPG1 230317Z 03011KT 29/13 A2981 RMK A01 T02900129  RH  037%=      5-min Rain = 0
KPG1 230318Z 02011KT 29/13 A2981 RMK A01 T02900128  RH  037%=      5-min Rain = 0
KPG1 230319Z 02010KT 29/13 A2981 RMK A01 T02890127  RH  037%=      5-min Rain = 0
KPG1 230320Z 03011KT 29/13 A2981 RMK A01 T02890127  RH  037%=      5-min Rain = 0
KPG1 230321Z 02012KT 29/13 A2981 RMK A01 T02890126  RH  037%=      5-min Rain = 0
KPG1 230322Z 03011KT 29/13 A2981 RMK A01 T02890126  RH  037%=      5-min Rain = 0
KPG1 230323Z 03012KT 29/13 A2981 RMK A01 T02880126  RH  037%=      5-min Rain = 0
KPG1 230324Z 03011KT 29/13 A2981 RMK A01 T02880126  RH  037%=      5-min Rain = 0
KPG1 230325Z 03010KT 29/13 A2981 RMK A01 T02880125  RH  037%=      5-min Rain = 0
KPG1 230326Z 02012KT 29/13 A2981 RMK A01 T02880125  RH  037%=      5-min Rain = 0
KPG1 230327Z 02013KT 29/12 A2981 RMK A01 T02870124  RH  036%=      5-min Rain = 0
KPG1 230328Z 02012KT 29/12 A2981 RMK A01 T02870123  RH  036%=      5-min Rain = 0
KPG1 230329Z 03014KT 29/12 A2981 RMK A01 T02880123  RH  036%=      5-min Rain = 0
KPG1 230330Z 03014G20KT 29/12 A2981 RMK A01 T02870123  RH  036%=      5-min Rain = 0
KPG1 230331Z 03013KT 29/12 A2981 RMK A01 T02880124  RH  036%=      5-min Rain = 0
KPG1 230332Z 05014KT 29/12 A2981 RMK A01 T02890124  RH  036%=      5-min Rain = 0
KPG1 230333Z 03013KT 29/12 A2981 RMK A01 T02890124  RH  036%=      5-min Rain = 0
KPG1 230334Z 04011KT 29/12 A2981 RMK A01 T02890123  RH  036%=      5-min Rain = 0
KPG1 230335Z 05011KT 29/12 A2981 RMK A01 T02880123  RH  036%=      5-min Rain = 0
KPG1 230336Z 05013KT 29/12 A2981 RMK A01 T02880123  RH  036%=      5-min Rain = 0
KPG1 230337Z 05012KT 29/12 A2981 RMK A01 T02880122  RH  036%=      5-min Rain = 0
KPG1 230338Z 05012KT 29/12 A2981 RMK A01 T02880122  RH  036%=      5-min Rain = 0
KPG1 230339Z 05011KT 29/12 A2981 RMK A01 T02880121  RH  036%=      5-min Rain = 0
KPG1 230340Z 04012KT 29/12 A2981 RMK A01 T02870120  RH  036%=      5-min Rain = 0
KPG1 230341Z 04012KT 29/12 A2981 RMK A01 T02870119  RH  035%=      5-min Rain = 0
KPG1 230342Z 03014KT 29/12 A2981 RMK A01 T02880118  RH  035%=      5-min Rain = 0
KPG1 230343Z 03016KT 29/12 A2981 RMK A01 T02880117  RH  035%=      5-min Rain = 0
KPG1 230344Z 02014KT 29/12 A2981 RMK A01 T02870115  RH  034%=      5-min Rain = 0
KPG1 230345Z 03012KT 29/12 A2981 RMK A01 T02870115  RH  034%=      5-min Rain = 0
KPG1 230346Z 03012KT 29/11 A2981 RMK A01 T02850114  RH  035%=      5-min Rain = 0
KPG1 230347Z 03014KT 28/11 A2982 RMK A01 T02840113  RH  035%=      5-min Rain = 0
KPG1 230348Z 02014G20KT 28/11 A2982 RMK A01 T02840113  RH  035%=      5-min Rain = 0
KPG1 230349Z 03015G20KT 28/11 A2982 RMK A01 T02840112  RH  034%=      5-min Rain = 0
KPG1 230350Z 04015G21KT 29/11 A2982 RMK A01 T02850111  RH  034%=      5-min Rain = 0
KPG1 230351Z 03016KT 29/11 A2982 RMK A01 T02850111  RH  034%=      5-min Rain = 0
KPG1 230352Z 03016KT 29/11 A2982 RMK A01 T02850111  RH  034%=      5-min Rain = 0
KPG1 230353Z 04016KT 29/11 A2982 RMK A01 T02860111  RH  034%=      5-min Rain = 0
KPG1 230354Z 04014KT 29/11 A2982 RMK A01 T02870111  RH  034%=      5-min Rain = 0
KPG1 230355Z 03014KT 29/11 A2982 RMK A01 T02870111  RH  033%=      5-min Rain = 0
KPG1 230356Z 04013KT 29/11 A2982 RMK A01 T02870110  RH  033%=      5-min Rain = 0
KPG1 230357Z 04013KT 29/11 A2982 RMK A01 T02870110  RH  033%=      5-min Rain = 0
KPG1 230358Z 05010KT 29/11 A2982 RMK A01 T02870110  RH  033%=      5-min Rain = 0
KPG1 230359Z 04012KT 29/11 A2982 RMK A01 T02870110  RH  033%=      5-min Rain = 0
KPG1 230400Z 05012KT 29/11 A2982 RMK A01 T02870110  RH  033%=      5-min Rain = 0
KPG1 230401Z 05012KT 29/11 A2983 RMK A01 T02860110  RH  033%=      5-min Rain = 0
KPG1 230402Z 05011KT 29/11 A2983 RMK A01 T02860110  RH  033%=      5-min Rain = 0
KPG1 230403Z 06012KT 29/11 A2983 RMK A01 T02870110  RH  033%=      5-min Rain = 0
KPG1 230404Z 06009KT 29/11 A2983 RMK A01 T02860110  RH  033%=      5-min Rain = 0
KPG1 230405Z 05010KT 29/11 A2983 RMK A01 T02860110  RH  034%=      5-min Rain = 0
KPG1 230406Z 07010KT 29/11 A2983 RMK A01 T02850110  RH  034%=      5-min Rain = 0
KPG1 230407Z 06009KT 29/11 A2983 RMK A01 T02850111  RH  034%=      5-min Rain = 0
KPG1 230408Z 06012KT 28/11 A2984 RMK A01 T02840111  RH  034%=      5-min Rain = 0
KPG1 230409Z 06011KT 28/11 A2984 RMK A01 T02840111  RH  034%=      5-min Rain = 0
KPG1 230410Z 06011KT 28/11 A2984 RMK A01 T02840111  RH  034%=      5-min Rain = 0
KPG1 230411Z 06009KT 28/11 A2984 RMK A01 T02840112  RH  034%=      5-min Rain = 0
KPG1 230412Z 06009KT 28/11 A2984 RMK A01 T02840112  RH  034%=      5-min Rain = 0
KPG1 230413Z 06009KT 28/11 A2984 RMK A01 T02840113  RH  035%=      5-min Rain = 0
KPG1 230414Z 07008KT 28/11 A2984 RMK A01 T02840114  RH  035%=      5-min Rain = 0
KPG1 230415Z 08011KT 28/12 A2984 RMK A01 T02830115  RH  035%=      5-min Rain = 0
KPG1 230416Z 06011KT 28/12 A2984 RMK A01 T02840116  RH  035%=      5-min Rain = 0
KPG1 230417Z 08011KT 29/12 A2984 RMK A01 T02850116  RH  035%=      5-min Rain = 0
KPG1 230418Z 08012KT 29/12 A2984 RMK A01 T02850116  RH  035%=      5-min Rain = 0
KPG1 230419Z 07012KT 29/12 A2984 RMK A01 T02850117  RH  035%=      5-min Rain = 0
KPG1 230420Z 07010KT 29/12 A2984 RMK A01 T02860118  RH  035%=      5-min Rain = 0
KPG1 230421Z 07013KT 29/12 A2984 RMK A01 T02850117  RH  035%=      5-min Rain = 0
KPG1 230422Z 06014KT 29/12 A2984 RMK A01 T02850118  RH  035%=      5-min Rain = 0
KPG1 230423Z 06014KT 29/12 A2984 RMK A01 T02850119  RH  036%=      5-min Rain = 0
KPG1 230424Z 07012KT 29/12 A2984 RMK A01 T02850119  RH  036%=      5-min Rain = 0
KPG1 230425Z 06010KT 29/12 A2984 RMK A01 T02850119  RH  036%=      5-min Rain = 0
KPG1 230426Z 07009KT 29/12 A2984 RMK A01 T02850118  RH  036%=      5-min Rain = 0
KPG1 230427Z 07010KT 28/12 A2984 RMK A01 T02840118  RH  036%=      5-min Rain = 0
KPG1 230428Z 06011KT 28/12 A2984 RMK A01 T02830118  RH  036%=      5-min Rain = 0
KPG1 230429Z 06012KT 28/12 A2984 RMK A01 T02830119  RH  036%=      5-min Rain = 0
KPG1 230430Z 07012KT 28/12 A2984 RMK A01 T02830118  RH  036%=      5-min Rain = 0
KPG1 230431Z 07010KT 28/12 A2984 RMK A01 T02830119  RH  036%=      5-min Rain = 0
KPG1 230432Z 07012KT 28/12 A2984 RMK A01 T02830119  RH  036%=      5-min Rain = 0
KPG1 230433Z 06011KT 28/12 A2984 RMK A01 T02820119  RH  036%=      5-min Rain = 0
KPG1 230434Z 06011KT 28/12 A2984 RMK A01 T02830119  RH  036%=      5-min Rain = 0
KPG1 230435Z 06008KT 28/12 A2984 RMK A01 T02830119  RH  036%=      5-min Rain = 0
KPG1 230436Z 05006KT 28/12 A2984 RMK A01 T02820119  RH  036%=      5-min Rain = 0
KPG1 230437Z 05006KT 28/12 A2984 RMK A01 T02820119  RH  036%=      5-min Rain = 0
KPG1 230438Z 07004KT 28/12 A2984 RMK A01 T02810119  RH  037%=      5-min Rain = 0
KPG1 230439Z 09004KT 28/12 A2984 RMK A01 T02810120  RH  037%=      5-min Rain = 0
KPG1 230440Z 08004KT 28/12 A2984 RMK A01 T02800122  RH  037%=      5-min Rain = 0
KPG1 230441Z 08005KT 28/12 A2984 RMK A01 T02800123  RH  038%=      5-min Rain = 0
KPG1 230442Z 09005KT 28/12 A2984 RMK A01 T02800123  RH  038%=      5-min Rain = 0
KPG1 230443Z 09005KT 28/12 A2984 RMK A01 T02810124  RH  038%=      5-min Rain = 0
KPG1 230444Z 09004KT 28/13 A2984 RMK A01 T02820126  RH  038%=      5-min Rain = 0
KPG1 230445Z 07004KT 28/13 A2984 RMK A01 T02820128  RH  039%=      5-min Rain = 0
KPG1 230446Z 07004KT 28/13 A2984 RMK A01 T02820125  RH  038%=      5-min Rain = 0
KPG1 230447Z 06003KT 28/12 A2984 RMK A01 T02820124  RH  038%=      5-min Rain = 0
KPG1 230448Z 07002KT 28/12 A2984 RMK A01 T02810124  RH  038%=      5-min Rain = 0
KPG1 230449Z 08004KT 28/13 A2984 RMK A01 T02800126  RH  038%=      5-min Rain = 0
KPG1 230450Z 08004KT 28/13 A2984 RMK A01 T02790129  RH  040%=      5-min Rain = 0
KPG1 230451Z 09003KT 28/13 A2984 RMK A01 T02780130  RH  040%=      5-min Rain = 0
KPG1 230452Z 07004KT 28/13 A2984 RMK A01 T02770130  RH  040%=      5-min Rain = 0
KPG1 230453Z 07004KT 28/13 A2984 RMK A01 T02770128  RH  040%=      5-min Rain = 0
KPG1 230454Z 07004KT 28/13 A2984 RMK A01 T02780127  RH  039%=      5-min Rain = 0
KPG1 230455Z 05004KT 28/13 A2984 RMK A01 T02780127  RH  039%=      5-min Rain = 0
KPG1 230456Z 05003KT 28/13 A2984 RMK A01 T02780129  RH  040%=      5-min Rain = 0
KPG1 230457Z 03004KT 28/13 A2984 RMK A01 T02770131  RH  040%=      5-min Rain = 0
KPG1 230458Z 02004KT 28/13 A2984 RMK A01 T02770130  RH  040%=      5-min Rain = 0
KPG1 230459Z 03004KT 28/13 A2984 RMK A01 T02770129  RH  040%=      5-min Rain = 0

Page generated in 0.1377 seconds.